Observation data for Vigo Park on 10/18/2019      Previous  Date       Current Mesonet Observations  Soil Data  Daily Summary Page  Observations in Plain Language
KVP1 180500Z 18015KT 15/06 A2985 RMK A01 T01540062  RH  054%=      5-min Rain = 0
KVP1 180501Z 18015G20KT 15/06 A2985 RMK A01 T01540061  RH  054%=      5-min Rain = 0
KVP1 180502Z 18015KT 15/06 A2985 RMK A01 T01540061  RH  054%=      5-min Rain = 0
KVP1 180503Z 17017KT 15/06 A2985 RMK A01 T01540061  RH  054%=      5-min Rain = 0
KVP1 180504Z 18013KT 15/06 A2985 RMK A01 T01540061  RH  054%=      5-min Rain = 0
KVP1 180505Z 18014KT 15/06 A2985 RMK A01 T01530061  RH  054%=      5-min Rain = 0
KVP1 180506Z 18013KT 15/06 A2985 RMK A01 T01530061  RH  054%=      5-min Rain = 0
KVP1 180507Z 17014KT 15/06 A2985 RMK A01 T01520061  RH  055%=      5-min Rain = 0
KVP1 180508Z 18015KT 15/06 A2984 RMK A01 T01510061  RH  055%=      5-min Rain = 0
KVP1 180509Z 18014KT 15/06 A2984 RMK A01 T01510061  RH  055%=      5-min Rain = 0
KVP1 180510Z 18014KT 15/06 A2985 RMK A01 T01510061  RH  055%=      5-min Rain = 0
KVP1 180511Z 18014KT 15/06 A2985 RMK A01 T01500060  RH  055%=      5-min Rain = 0
KVP1 180512Z 18014G19KT 15/06 A2985 RMK A01 T01500060  RH  055%=      5-min Rain = 0
KVP1 180513Z 18013KT 15/06 A2985 RMK A01 T01500060  RH  055%=      5-min Rain = 0
KVP1 180514Z 18014KT 15/06 A2985 RMK A01 T01490060  RH  055%=      5-min Rain = 0
KVP1 180515Z 18012KT 15/06 A2985 RMK A01 T01490060  RH  055%=      5-min Rain = 0
KVP1 180516Z 18012KT 15/06 A2985 RMK A01 T01480060  RH  056%=      5-min Rain = 0
KVP1 180517Z 18014KT 15/06 A2985 RMK A01 T01470060  RH  056%=      5-min Rain = 0
KVP1 180518Z 18013KT 15/06 A2985 RMK A01 T01470060  RH  056%=      5-min Rain = 0
KVP1 180519Z 18013KT 15/06 A2985 RMK A01 T01470060  RH  056%=      5-min Rain = 0
KVP1 180520Z 18014KT 15/06 A2985 RMK A01 T01470060  RH  056%=      5-min Rain = 0
KVP1 180521Z 18012KT 15/06 A2985 RMK A01 T01480060  RH  056%=      5-min Rain = 0
KVP1 180522Z 18013KT 15/06 A2985 RMK A01 T01470060  RH  056%=      5-min Rain = 0
KVP1 180523Z 18013KT 15/06 A2985 RMK A01 T01460059  RH  056%=      5-min Rain = 0
KVP1 180524Z 18014KT 15/06 A2985 RMK A01 T01460059  RH  056%=      5-min Rain = 0
KVP1 180525Z 18013G19KT 15/06 A2984 RMK A01 T01460059  RH  056%=      5-min Rain = 0
KVP1 180526Z 18015KT 15/06 A2984 RMK A01 T01460059  RH  056%=      5-min Rain = 0
KVP1 180527Z 18012KT 15/06 A2984 RMK A01 T01470059  RH  056%=      5-min Rain = 0
KVP1 180528Z 18013KT 15/06 A2984 RMK A01 T01470059  RH  056%=      5-min Rain = 0
KVP1 180529Z 18013KT 15/06 A2984 RMK A01 T01460059  RH  056%=      5-min Rain = 0
KVP1 180530Z 18014KT 15/06 A2984 RMK A01 T01460059  RH  056%=      5-min Rain = 0
KVP1 180531Z 17013KT 15/06 A2984 RMK A01 T01460059  RH  056%=      5-min Rain = 0
KVP1 180532Z 17013KT 15/06 A2984 RMK A01 T01460059  RH  056%=      5-min Rain = 0
KVP1 180533Z 18013KT 15/06 A2984 RMK A01 T01450058  RH  056%=      5-min Rain = 0
KVP1 180534Z 17013KT 15/06 A2984 RMK A01 T01450058  RH  056%=      5-min Rain = 0
KVP1 180535Z 18014KT 15/06 A2984 RMK A01 T01450058  RH  056%=      5-min Rain = 0
KVP1 180536Z 18013G18KT 15/06 A2984 RMK A01 T01450058  RH  056%=      5-min Rain = 0
KVP1 180537Z 18013KT 15/06 A2984 RMK A01 T01450058  RH  056%=      5-min Rain = 0
KVP1 180538Z 18014KT 15/06 A2984 RMK A01 T01450058  RH  056%=      5-min Rain = 0
KVP1 180539Z 18014KT 15/06 A2984 RMK A01 T01450058  RH  056%=      5-min Rain = 0
KVP1 180540Z 18014KT 15/06 A2984 RMK A01 T01450058  RH  056%=      5-min Rain = 0
KVP1 180541Z 18013KT 14/06 A2984 RMK A01 T01440058  RH  056%=      5-min Rain = 0
KVP1 180542Z 18014KT 14/06 A2984 RMK A01 T01430058  RH  056%=      5-min Rain = 0
KVP1 180543Z 18015KT 14/06 A2984 RMK A01 T01430058  RH  056%=      5-min Rain = 0
KVP1 180544Z 18014KT 14/06 A2984 RMK A01 T01440057  RH  056%=      5-min Rain = 0
KVP1 180545Z 18014KT 14/06 A2984 RMK A01 T01440057  RH  056%=      5-min Rain = 0
KVP1 180546Z 18013KT 14/06 A2984 RMK A01 T01440058  RH  056%=      5-min Rain = 0
KVP1 180547Z 18013KT 14/06 A2984 RMK A01 T01430057  RH  056%=      5-min Rain = 0
KVP1 180548Z 18012KT 14/06 A2984 RMK A01 T01430058  RH  057%=      5-min Rain = 0
KVP1 180549Z 18014KT 14/06 A2984 RMK A01 T01420057  RH  057%=      5-min Rain = 0
KVP1 180550Z 18014KT 14/06 A2984 RMK A01 T01420057  RH  057%=      5-min Rain = 0
KVP1 180551Z 18013KT 14/06 A2984 RMK A01 T01420057  RH  057%=      5-min Rain = 0
KVP1 180552Z 18014KT 14/06 A2984 RMK A01 T01420057  RH  057%=      5-min Rain = 0
KVP1 180553Z 18013KT 14/06 A2984 RMK A01 T01410057  RH  057%=      5-min Rain = 0
KVP1 180554Z 18013KT 14/06 A2984 RMK A01 T01420057  RH  057%=      5-min Rain = 0
KVP1 180555Z 18014KT 14/06 A2984 RMK A01 T01410057  RH  057%=      5-min Rain = 0
KVP1 180556Z 18013KT 14/06 A2984 RMK A01 T01410057  RH  057%=      5-min Rain = 0
KVP1 180557Z 18014KT 14/06 A2984 RMK A01 T01410057  RH  057%=      5-min Rain = 0
KVP1 180558Z 18013KT 14/06 A2984 RMK A01 T01410057  RH  057%=      5-min Rain = 0
KVP1 180559Z 18014KT 14/06 A2984 RMK A01 T01410057  RH  057%=      5-min Rain = 0
KVP1 180600Z 18014KT 14/06 A2984 RMK A01 T01410057  RH  057%=      5-min Rain = 0
KVP1 180601Z 18014KT 14/06 A2984 RMK A01 T01410056  RH  057%=      5-min Rain = 0
KVP1 180602Z 18014KT 14/06 A2984 RMK A01 T01400056  RH  057%=      5-min Rain = 0
KVP1 180603Z 18012KT 14/06 A2984 RMK A01 T01410057  RH  057%=      5-min Rain = 0
KVP1 180604Z 18013KT 14/06 A2984 RMK A01 T01400056  RH  057%=      5-min Rain = 0
KVP1 180605Z 18013KT 14/06 A2984 RMK A01 T01390056  RH  057%=      5-min Rain = 0
KVP1 180606Z 18014KT 14/06 A2984 RMK A01 T01390056  RH  057%=      5-min Rain = 0
KVP1 180607Z 18014KT 14/06 A2984 RMK A01 T01390056  RH  057%=      5-min Rain = 0
KVP1 180608Z 18013KT 14/06 A2984 RMK A01 T01390056  RH  057%=      5-min Rain = 0
KVP1 180609Z 18013KT 14/06 A2984 RMK A01 T01390056  RH  057%=      5-min Rain = 0
KVP1 180610Z 18013KT 14/06 A2984 RMK A01 T01390056  RH  057%=      5-min Rain = 0
KVP1 180611Z 18014KT 14/06 A2984 RMK A01 T01390056  RH  057%=      5-min Rain = 0
KVP1 180612Z 18014G19KT 14/06 A2984 RMK A01 T01380055  RH  057%=      5-min Rain = 0
KVP1 180613Z 18013KT 14/06 A2984 RMK A01 T01380055  RH  057%=      5-min Rain = 0
KVP1 180614Z 18014KT 14/06 A2984 RMK A01 T01380055  RH  057%=      5-min Rain = 0
KVP1 180615Z 18013KT 14/06 A2984 RMK A01 T01380055  RH  057%=      5-min Rain = 0
KVP1 180616Z 18012KT 14/06 A2984 RMK A01 T01380055  RH  057%=      5-min Rain = 0
KVP1 180617Z 18014KT 14/06 A2984 RMK A01 T01370055  RH  058%=      5-min Rain = 0
KVP1 180618Z 18012KT 14/06 A2984 RMK A01 T01370055  RH  057%=      5-min Rain = 0
KVP1 180619Z 18013KT 14/06 A2984 RMK A01 T01370055  RH  057%=      5-min Rain = 0
KVP1 180620Z 18013KT 14/06 A2984 RMK A01 T01370055  RH  058%=      5-min Rain = 0
KVP1 180621Z 18011KT 14/06 A2984 RMK A01 T01360055  RH  058%=      5-min Rain = 0
KVP1 180622Z 18012KT 14/06 A2984 RMK A01 T01360055  RH  058%=      5-min Rain = 0
KVP1 180623Z 18013KT 14/06 A2984 RMK A01 T01360055  RH  058%=      5-min Rain = 0
KVP1 180624Z 18011KT 14/05 A2984 RMK A01 T01360054  RH  058%=      5-min Rain = 0
KVP1 180625Z 18012KT 14/05 A2984 RMK A01 T01360054  RH  058%=      5-min Rain = 0
KVP1 180626Z 18012KT 14/05 A2984 RMK A01 T01350054  RH  058%=      5-min Rain = 0
KVP1 180627Z 18012KT 14/05 A2984 RMK A01 T01350054  RH  058%=      5-min Rain = 0
KVP1 180628Z 18013KT 14/05 A2984 RMK A01 T01350054  RH  058%=      5-min Rain = 0
KVP1 180629Z 18013KT 14/05 A2984 RMK A01 T01350053  RH  058%=      5-min Rain = 0
KVP1 180630Z 18012KT 14/05 A2984 RMK A01 T01350053  RH  058%=      5-min Rain = 0
KVP1 180631Z 18012KT 14/05 A2984 RMK A01 T01350053  RH  057%=      5-min Rain = 0
KVP1 180632Z 18013KT 14/05 A2984 RMK A01 T01350053  RH  057%=      5-min Rain = 0
KVP1 180633Z 18012KT 14/05 A2984 RMK A01 T01350053  RH  057%=      5-min Rain = 0
KVP1 180634Z 18012KT 14/05 A2984 RMK A01 T01360053  RH  057%=      5-min Rain = 0
KVP1 180635Z 18012KT 14/05 A2983 RMK A01 T01350053  RH  057%=      5-min Rain = 0
KVP1 180636Z 18014KT 14/05 A2983 RMK A01 T01350052  RH  057%=      5-min Rain = 0
KVP1 180637Z 18015KT 14/05 A2983 RMK A01 T01350052  RH  057%=      5-min Rain = 0
KVP1 180638Z 18013KT 14/05 A2983 RMK A01 T01360051  RH  057%=      5-min Rain = 0
KVP1 180639Z 18012KT 14/05 A2983 RMK A01 T01360052  RH  057%=      5-min Rain = 0
KVP1 180640Z 18013KT 14/05 A2983 RMK A01 T01360052  RH  057%=      5-min Rain = 0
KVP1 180641Z 18012KT 14/05 A2983 RMK A01 T01350051  RH  057%=      5-min Rain = 0
KVP1 180642Z 18014KT 14/05 A2983 RMK A01 T01350051  RH  057%=      5-min Rain = 0
KVP1 180643Z 18013KT 14/05 A2983 RMK A01 T01350051  RH  057%=      5-min Rain = 0
KVP1 180644Z 19012KT 14/05 A2983 RMK A01 T01350050  RH  057%=      5-min Rain = 0
KVP1 180645Z 18013KT 14/05 A2983 RMK A01 T01350051  RH  057%=      5-min Rain = 0
KVP1 180646Z 18013KT 13/05 A2983 RMK A01 T01340050  RH  057%=      5-min Rain = 0
KVP1 180647Z 18013KT 13/05 A2983 RMK A01 T01340050  RH  057%=      5-min Rain = 0
KVP1 180648Z 18014KT 14/05 A2983 RMK A01 T01350050  RH  056%=      5-min Rain = 0
KVP1 180649Z 18014KT 14/05 A2983 RMK A01 T01360050  RH  056%=      5-min Rain = 0
KVP1 180650Z 18013KT 14/05 A2983 RMK A01 T01350049  RH  056%=      5-min Rain = 0
KVP1 180651Z 18013KT 14/05 A2983 RMK A01 T01360049  RH  056%=      5-min Rain = 0
KVP1 180652Z 18013KT 14/05 A2983 RMK A01 T01350049  RH  056%=      5-min Rain = 0
KVP1 180653Z 18011KT 14/05 A2983 RMK A01 T01350049  RH  056%=      5-min Rain = 0
KVP1 180654Z 18014KT 14/05 A2983 RMK A01 T01350049  RH  056%=      5-min Rain = 0
KVP1 180655Z 18013KT 14/05 A2983 RMK A01 T01350048  RH  056%=      5-min Rain = 0
KVP1 180656Z 19013KT 14/05 A2983 RMK A01 T01350048  RH  056%=      5-min Rain = 0
KVP1 180657Z 19014KT 14/05 A2983 RMK A01 T01350048  RH  056%=      5-min Rain = 0
KVP1 180658Z 18012KT 14/05 A2983 RMK A01 T01350048  RH  055%=      5-min Rain = 0
KVP1 180659Z 18015KT 14/05 A2983 RMK A01 T01350047  RH  055%=      5-min Rain = 0
KVP1 180700Z 19013KT 14/05 A2983 RMK A01 T01350047  RH  055%=      5-min Rain = 0
KVP1 180701Z 18012KT 14/05 A2983 RMK A01 T01360047  RH  055%=      5-min Rain = 0
KVP1 180702Z 18012KT 14/05 A2983 RMK A01 T01360047  RH  055%=      5-min Rain = 0
KVP1 180703Z 19012KT 14/05 A2983 RMK A01 T01360047  RH  055%=      5-min Rain = 0
KVP1 180704Z 18013KT 14/05 A2983 RMK A01 T01350047  RH  055%=      5-min Rain = 0
KVP1 180705Z 18013KT 14/05 A2983 RMK A01 T01350047  RH  055%=      5-min Rain = 0
KVP1 180706Z 18013KT 14/05 A2983 RMK A01 T01350046  RH  055%=      5-min Rain = 0
KVP1 180707Z 18013KT 14/05 A2983 RMK A01 T01350046  RH  055%=      5-min Rain = 0
KVP1 180708Z 18013KT 14/05 A2983 RMK A01 T01350046  RH  055%=      5-min Rain = 0
KVP1 180709Z 19013KT 14/05 A2983 RMK A01 T01350046  RH  055%=      5-min Rain = 0
KVP1 180710Z 18013KT 14/05 A2983 RMK A01 T01350046  RH  055%=      5-min Rain = 0
KVP1 180711Z 19013KT 14/05 A2983 RMK A01 T01350046  RH  055%=      5-min Rain = 0
KVP1 180712Z 19013KT 14/05 A2983 RMK A01 T01350046  RH  055%=      5-min Rain = 0
KVP1 180713Z 18014KT 14/05 A2983 RMK A01 T01350046  RH  055%=      5-min Rain = 0
KVP1 180714Z 18013KT 14/05 A2983 RMK A01 T01350046  RH  055%=      5-min Rain = 0
KVP1 180715Z 18014KT 14/05 A2983 RMK A01 T01350046  RH  055%=      5-min Rain = 0
KVP1 180716Z 19014KT 14/05 A2983 RMK A01 T01360045  RH  054%=      5-min Rain = 0
KVP1 180717Z 18014KT 14/05 A2983 RMK A01 T01360046  RH  054%=      5-min Rain = 0
KVP1 180718Z 18014KT 14/05 A2983 RMK A01 T01360046  RH  054%=      5-min Rain = 0
KVP1 180719Z 18014KT 14/05 A2983 RMK A01 T01360046  RH  054%=      5-min Rain = 0
KVP1 180720Z 18013KT 14/05 A2983 RMK A01 T01360046  RH  055%=      5-min Rain = 0
KVP1 180721Z 18013KT 14/05 A2983 RMK A01 T01360046  RH  055%=      5-min Rain = 0
KVP1 180722Z 19015KT 14/05 A2983 RMK A01 T01350046  RH  055%=      5-min Rain = 0
KVP1 180723Z 19013KT 14/05 A2983 RMK A01 T01350046  RH  055%=      5-min Rain = 0
KVP1 180724Z 19013KT 13/05 A2983 RMK A01 T01340046  RH  055%=      5-min Rain = 0
KVP1 180725Z 19013KT 14/05 A2983 RMK A01 T01350046  RH  055%=      5-min Rain = 0
KVP1 180726Z 19014KT 14/05 A2983 RMK A01 T01350047  RH  055%=      5-min Rain = 0
KVP1 180727Z 19014KT 13/05 A2983 RMK A01 T01340046  RH  055%=      5-min Rain = 0
KVP1 180728Z 19013KT 14/05 A2983 RMK A01 T01350047  RH  055%=      5-min Rain = 0
KVP1 180729Z 19014KT 13/05 A2983 RMK A01 T01340046  RH  055%=      5-min Rain = 0
KVP1 180730Z 19013KT 13/05 A2983 RMK A01 T01340046  RH  055%=      5-min Rain = 0
KVP1 180731Z 19012KT 13/05 A2983 RMK A01 T01340047  RH  055%=      5-min Rain = 0
KVP1 180732Z 19013KT 13/05 A2983 RMK A01 T01340047  RH  056%=      5-min Rain = 0
KVP1 180733Z 19013KT 13/05 A2983 RMK A01 T01330047  RH  056%=      5-min Rain = 0
KVP1 180734Z 19013KT 13/05 A2983 RMK A01 T01330047  RH  056%=      5-min Rain = 0
KVP1 180735Z 19013KT 13/05 A2983 RMK A01 T01330047  RH  056%=      5-min Rain = 0
KVP1 180736Z 19013KT 13/05 A2983 RMK A01 T01330047  RH  056%=      5-min Rain = 0
KVP1 180737Z 19013KT 13/05 A2983 RMK A01 T01330047  RH  056%=      5-min Rain = 0
KVP1 180738Z 19013KT 13/05 A2983 RMK A01 T01320047  RH  056%=      5-min Rain = 0
KVP1 180739Z 19013KT 13/05 A2983 RMK A01 T01320047  RH  056%=      5-min Rain = 0
KVP1 180740Z 18012KT 13/05 A2983 RMK A01 T01320047  RH  057%=      5-min Rain = 0
KVP1 180741Z 19012KT 13/05 A2983 RMK A01 T01320048  RH  057%=      5-min Rain = 0
KVP1 180742Z 19013KT 13/05 A2983 RMK A01 T01310048  RH  057%=      5-min Rain = 0
KVP1 180743Z 19013KT 13/05 A2983 RMK A01 T01310048  RH  057%=      5-min Rain = 0
KVP1 180744Z 19012KT 13/05 A2983 RMK A01 T01310048  RH  057%=      5-min Rain = 0
KVP1 180745Z 19012KT 13/05 A2983 RMK A01 T01310048  RH  057%=      5-min Rain = 0
KVP1 180746Z 19012KT 13/05 A2983 RMK A01 T01300048  RH  057%=      5-min Rain = 0
KVP1 180747Z 19013KT 13/05 A2983 RMK A01 T01300049  RH  058%=      5-min Rain = 0
KVP1 180748Z 19013KT 13/05 A2983 RMK A01 T01300049  RH  058%=      5-min Rain = 0
KVP1 180749Z 19012KT 13/05 A2983 RMK A01 T01300049  RH  058%=      5-min Rain = 0
KVP1 180750Z 19013KT 13/05 A2983 RMK A01 T01300049  RH  058%=      5-min Rain = 0
KVP1 180751Z 19013KT 13/05 A2983 RMK A01 T01300049  RH  058%=      5-min Rain = 0
KVP1 180752Z 19013KT 13/05 A2983 RMK A01 T01310049  RH  058%=      5-min Rain = 0
KVP1 180753Z 19012KT 13/05 A2983 RMK A01 T01310049  RH  058%=      5-min Rain = 0
KVP1 180754Z 19013KT 13/05 A2983 RMK A01 T01300049  RH  058%=      5-min Rain = 0
KVP1 180755Z 19012KT 13/05 A2983 RMK A01 T01300049  RH  058%=      5-min Rain = 0
KVP1 180756Z 19013KT 13/05 A2983 RMK A01 T01290049  RH  058%=      5-min Rain = 0
KVP1 180757Z 19012KT 13/05 A2983 RMK A01 T01300050  RH  058%=      5-min Rain = 0
KVP1 180758Z 19013KT 13/05 A2983 RMK A01 T01290049  RH  058%=      5-min Rain = 0
KVP1 180759Z 19013KT 13/05 A2983 RMK A01 T01300050  RH  058%=      5-min Rain = 0
KVP1 180800Z 19013KT 13/05 A2983 RMK A01 T01300050  RH  058%=      5-min Rain = 0
KVP1 180801Z 19012KT 13/05 A2983 RMK A01 T01300050  RH  058%=      5-min Rain = 0
KVP1 180802Z 19012KT 13/05 A2983 RMK A01 T01290050  RH  059%=      5-min Rain = 0
KVP1 180803Z 19013KT 13/05 A2983 RMK A01 T01290050  RH  059%=      5-min Rain = 0
KVP1 180804Z 19013KT 13/05 A2983 RMK A01 T01290050  RH  059%=      5-min Rain = 0
KVP1 180805Z 19012KT 13/05 A2983 RMK A01 T01290050  RH  059%=      5-min Rain = 0
KVP1 180806Z 19014KT 13/05 A2983 RMK A01 T01290051  RH  059%=      5-min Rain = 0
KVP1 180807Z 19013KT 13/05 A2983 RMK A01 T01290051  RH  059%=      5-min Rain = 0
KVP1 180808Z 19014KT 13/05 A2983 RMK A01 T01290051  RH  059%=      5-min Rain = 0
KVP1 180809Z 19013KT 13/05 A2983 RMK A01 T01290051  RH  059%=      5-min Rain = 0
KVP1 180810Z 19012G17KT 13/05 A2982 RMK A01 T01300051  RH  059%=      5-min Rain = 0
KVP1 180811Z 19013KT 13/05 A2982 RMK A01 T01300052  RH  059%=      5-min Rain = 0
KVP1 180812Z 19013KT 13/05 A2982 RMK A01 T01290052  RH  059%=      5-min Rain = 0
KVP1 180813Z 19012KT 13/05 A2982 RMK A01 T01290052  RH  059%=      5-min Rain = 0
KVP1 180814Z 19012KT 13/05 A2982 RMK A01 T01280052  RH  060%=      5-min Rain = 0
KVP1 180815Z 19013KT 13/05 A2982 RMK A01 T01280052  RH  060%=      5-min Rain = 0
KVP1 180816Z 20014KT 13/05 A2982 RMK A01 T01280052  RH  060%=      5-min Rain = 0
KVP1 180817Z 19014KT 13/05 A2982 RMK A01 T01280052  RH  060%=      5-min Rain = 0
KVP1 180818Z 19014KT 13/05 A2982 RMK A01 T01290052  RH  060%=      5-min Rain = 0
KVP1 180819Z 19014KT 13/05 A2982 RMK A01 T01290052  RH  060%=      5-min Rain = 0
KVP1 180820Z 19013KT 13/05 A2982 RMK A01 T01290053  RH  060%=      5-min Rain = 0
KVP1 180821Z 19014KT 13/05 A2982 RMK A01 T01290053  RH  060%=      5-min Rain = 0
KVP1 180822Z 19013KT 13/05 A2982 RMK A01 T01290053  RH  060%=      5-min Rain = 0
KVP1 180823Z 19013KT 13/05 A2982 RMK A01 T01290053  RH  060%=      5-min Rain = 0
KVP1 180824Z 19014KT 13/05 A2982 RMK A01 T01280053  RH  060%=      5-min Rain = 0
KVP1 180825Z 19013KT 13/05 A2982 RMK A01 T01280053  RH  060%=      5-min Rain = 0
KVP1 180826Z 19014KT 13/05 A2982 RMK A01 T01280054  RH  060%=      5-min Rain = 0
KVP1 180827Z 19012KT 13/05 A2982 RMK A01 T01280054  RH  061%=      5-min Rain = 0
KVP1 180828Z 19014KT 13/05 A2982 RMK A01 T01270054  RH  061%=      5-min Rain = 0
KVP1 180829Z 19014KT 13/05 A2982 RMK A01 T01270054  RH  061%=      5-min Rain = 0
KVP1 180830Z 19014KT 13/05 A2982 RMK A01 T01280054  RH  061%=      5-min Rain = 0
KVP1 180831Z 19014KT 13/05 A2982 RMK A01 T01280054  RH  061%=      5-min Rain = 0
KVP1 180832Z 19013KT 13/06 A2982 RMK A01 T01290055  RH  061%=      5-min Rain = 0
KVP1 180833Z 19014KT 13/06 A2982 RMK A01 T01290055  RH  061%=      5-min Rain = 0
KVP1 180834Z 19013KT 13/06 A2982 RMK A01 T01280055  RH  061%=      5-min Rain = 0
KVP1 180835Z 19015KT 13/06 A2982 RMK A01 T01290055  RH  061%=      5-min Rain = 0
KVP1 180836Z 19015KT 13/06 A2982 RMK A01 T01290055  RH  061%=      5-min Rain = 0
KVP1 180837Z 19013KT 13/06 A2982 RMK A01 T01290055  RH  061%=      5-min Rain = 0
KVP1 180838Z 20013KT 13/06 A2982 RMK A01 T01290056  RH  061%=      5-min Rain = 0
KVP1 180839Z 19014KT 13/06 A2982 RMK A01 T01280056  RH  061%=      5-min Rain = 0
KVP1 180840Z 19013KT 13/06 A2981 RMK A01 T01280056  RH  061%=      5-min Rain = 0
KVP1 180841Z 20014KT 13/06 A2982 RMK A01 T01290056  RH  061%=      5-min Rain = 0
KVP1 180842Z 19013KT 13/06 A2981 RMK A01 T01290056  RH  061%=      5-min Rain = 0
KVP1 180843Z 19013KT 13/06 A2981 RMK A01 T01290056  RH  061%=      5-min Rain = 0
KVP1 180844Z 20013KT 13/06 A2981 RMK A01 T01290057  RH  062%=      5-min Rain = 0
KVP1 180845Z 19013KT 13/06 A2981 RMK A01 T01290057  RH  062%=      5-min Rain = 0
KVP1 180846Z 20013KT 13/06 A2981 RMK A01 T01290057  RH  062%=      5-min Rain = 0
KVP1 180847Z 20013KT 13/06 A2981 RMK A01 T01280058  RH  062%=      5-min Rain = 0
KVP1 180848Z 19013KT 13/06 A2981 RMK A01 T01280058  RH  062%=      5-min Rain = 0
KVP1 180849Z 19013KT 13/06 A2981 RMK A01 T01280058  RH  062%=      5-min Rain = 0
KVP1 180850Z 19012KT 13/06 A2981 RMK A01 T01280058  RH  062%=      5-min Rain = 0
KVP1 180851Z 19014KT 13/06 A2981 RMK A01 T01280058  RH  063%=      5-min Rain = 0
KVP1 180852Z 20012KT 13/06 A2981 RMK A01 T01280058  RH  063%=      5-min Rain = 0
KVP1 180853Z 20014KT 13/06 A2981 RMK A01 T01280059  RH  063%=      5-min Rain = 0
KVP1 180854Z 20013KT 13/06 A2981 RMK A01 T01280059  RH  063%=      5-min Rain = 0
KVP1 180855Z 19013KT 13/06 A2981 RMK A01 T01280059  RH  063%=      5-min Rain = 0
KVP1 180856Z 20014KT 13/06 A2981 RMK A01 T01280059  RH  063%=      5-min Rain = 0
KVP1 180857Z 19012KT 13/06 A2981 RMK A01 T01280060  RH  063%=      5-min Rain = 0
KVP1 180858Z 20012KT 13/06 A2981 RMK A01 T01270060  RH  063%=      5-min Rain = 0
KVP1 180859Z 20012KT 13/06 A2981 RMK A01 T01270060  RH  064%=      5-min Rain = 0
KVP1 180900Z 20012KT 13/06 A2981 RMK A01 T01270060  RH  064%=      5-min Rain = 0
KVP1 180901Z 20011KT 13/06 A2981 RMK A01 T01270061  RH  064%=      5-min Rain = 0
KVP1 180902Z 20012KT 13/06 A2981 RMK A01 T01270061  RH  064%=      5-min Rain = 0
KVP1 180903Z 20014KT 13/06 A2981 RMK A01 T01260061  RH  064%=      5-min Rain = 0
KVP1 180904Z 20015KT 13/06 A2981 RMK A01 T01270061  RH  064%=      5-min Rain = 0
KVP1 180905Z 20014KT 13/06 A2981 RMK A01 T01280062  RH  064%=      5-min Rain = 0
KVP1 180906Z 20013KT 13/06 A2981 RMK A01 T01280062  RH  064%=      5-min Rain = 0
KVP1 180907Z 20013KT 13/06 A2981 RMK A01 T01280062  RH  064%=      5-min Rain = 0
KVP1 180908Z 20014KT 13/06 A2981 RMK A01 T01280062  RH  064%=      5-min Rain = 0
KVP1 180909Z 20013KT 13/06 A2981 RMK A01 T01280063  RH  064%=      5-min Rain = 0
KVP1 180910Z 20014KT 13/06 A2981 RMK A01 T01280062  RH  064%=      5-min Rain = 0
KVP1 180911Z 20014KT 13/06 A2981 RMK A01 T01280062  RH  064%=      5-min Rain = 0
KVP1 180912Z 20013KT 13/06 A2981 RMK A01 T01280062  RH  064%=      5-min Rain = 0
KVP1 180913Z 20012KT 13/06 A2981 RMK A01 T01280063  RH  064%=      5-min Rain = 0
KVP1 180914Z 20013KT 13/06 A2981 RMK A01 T01280063  RH  065%=      5-min Rain = 0
KVP1 180915Z 20012KT 13/06 A2981 RMK A01 T01270063  RH  065%=      5-min Rain = 0
KVP1 180916Z 20012KT 13/06 A2981 RMK A01 T01270063  RH  065%=      5-min Rain = 0
KVP1 180917Z 20013KT 13/06 A2981 RMK A01 T01270063  RH  065%=      5-min Rain = 0
KVP1 180918Z 20014KT 13/06 A298 RMK A01 T01260063  RH  065%=      5-min Rain = 0
KVP1 180919Z 20012KT 13/06 A2981 RMK A01 T01260063  RH  066%=      5-min Rain = 0
KVP1 180920Z 20013KT 13/06 A2981 RMK A01 T01260063  RH  066%=      5-min Rain = 0
KVP1 180921Z 20011KT 13/06 A298 RMK A01 T01260064  RH  066%=      5-min Rain = 0
KVP1 180922Z 20012KT 13/06 A298 RMK A01 T01260064  RH  066%=      5-min Rain = 0
KVP1 180923Z 20011KT 13/06 A298 RMK A01 T01260064  RH  066%=      5-min Rain = 0
KVP1 180924Z 20012KT 13/06 A298 RMK A01 T01250064  RH  066%=      5-min Rain = 0
KVP1 180925Z 20014KT 13/06 A298 RMK A01 T01260064  RH  066%=      5-min Rain = 0
KVP1 180926Z 20011KT 13/06 A298 RMK A01 T01260064  RH  066%=      5-min Rain = 0
KVP1 180927Z 20013KT 13/07 A298 RMK A01 T01260065  RH  066%=      5-min Rain = 0
KVP1 180928Z 20012KT 13/07 A298 RMK A01 T01260065  RH  066%=      5-min Rain = 0
KVP1 180929Z 20011KT 13/07 A298 RMK A01 T01260065  RH  066%=      5-min Rain = 0
KVP1 180930Z 20011KT 13/07 A298 RMK A01 T01260065  RH  066%=      5-min Rain = 0
KVP1 180931Z 20012KT 13/07 A298 RMK A01 T01250065  RH  067%=      5-min Rain = 0
KVP1 180932Z 20012KT 13/07 A298 RMK A01 T01250065  RH  067%=      5-min Rain = 0
KVP1 180933Z 20012KT 13/07 A298 RMK A01 T01250065  RH  067%=      5-min Rain = 0
KVP1 180934Z 20013KT 13/07 A298 RMK A01 T01250065  RH  067%=      5-min Rain = 0
KVP1 180935Z 20012KT 13/07 A298 RMK A01 T01250066  RH  067%=      5-min Rain = 0
KVP1 180936Z 20012KT 13/07 A298 RMK A01 T01250065  RH  067%=      5-min Rain = 0
KVP1 180937Z 20012KT 13/07 A298 RMK A01 T01250066  RH  067%=      5-min Rain = 0
KVP1 180938Z 20011KT 13/07 A298 RMK A01 T01250066  RH  067%=      5-min Rain = 0
KVP1 180939Z 20012KT 13/07 A298 RMK A01 T01250066  RH  067%=      5-min Rain = 0
KVP1 180940Z 20012KT 12/07 A298 RMK A01 T01240066  RH  067%=      5-min Rain = 0
KVP1 180941Z 20012KT 13/07 A298 RMK A01 T01250066  RH  067%=      5-min Rain = 0
KVP1 180942Z 20012KT 13/07 A298 RMK A01 T01250066  RH  067%=      5-min Rain = 0
KVP1 180943Z 20013KT 12/07 A298 RMK A01 T01240066  RH  068%=      5-min Rain = 0
KVP1 180944Z 20013KT 12/07 A298 RMK A01 T01240066  RH  068%=      5-min Rain = 0
KVP1 180945Z 20012KT 12/07 A298 RMK A01 T01240067  RH  068%=      5-min Rain = 0
KVP1 180946Z 20012KT 12/07 A2979 RMK A01 T01240067  RH  068%=      5-min Rain = 0
KVP1 180947Z 20013KT 12/07 A2979 RMK A01 T01240066  RH  068%=      5-min Rain = 0
KVP1 180948Z 20012KT 12/07 A2979 RMK A01 T01230066  RH  068%=      5-min Rain = 0
KVP1 180949Z 20012KT 12/07 A298 RMK A01 T01230067  RH  068%=      5-min Rain = 0
KVP1 180950Z 20013KT 12/07 A2979 RMK A01 T01240067  RH  068%=      5-min Rain = 0
KVP1 180951Z 20013KT 12/07 A2979 RMK A01 T01240067  RH  068%=      5-min Rain = 0
KVP1 180952Z 20013KT 12/07 A298 RMK A01 T01230067  RH  068%=      5-min Rain = 0
KVP1 180953Z 20013KT 12/07 A2979 RMK A01 T01240067  RH  068%=      5-min Rain = 0
KVP1 180954Z 20012KT 12/07 A2979 RMK A01 T01240067  RH  068%=      5-min Rain = 0
KVP1 180955Z 20012KT 12/07 A298 RMK A01 T01240067  RH  068%=      5-min Rain = 0
KVP1 180956Z 20012KT 12/07 A2979 RMK A01 T01240068  RH  069%=      5-min Rain = 0
KVP1 180957Z 20011KT 12/07 A2979 RMK A01 T01240068  RH  069%=      5-min Rain = 0
KVP1 180958Z 20012KT 12/07 A2979 RMK A01 T01230068  RH  069%=      5-min Rain = 0
KVP1 180959Z 20011KT 12/07 A2979 RMK A01 T01240068  RH  069%=      5-min Rain = 0
KVP1 181000Z 20012KT 12/07 A2979 RMK A01 T01230068  RH  069%=      5-min Rain = 0
KVP1 181001Z 20011KT 12/07 A2979 RMK A01 T01240068  RH  069%=      5-min Rain = 0
KVP1 181002Z 20011KT 12/07 A2979 RMK A01 T01230068  RH  069%=      5-min Rain = 0
KVP1 181003Z 20011KT 12/07 A2979 RMK A01 T01230068  RH  069%=      5-min Rain = 0
KVP1 181004Z 20011KT 12/07 A2979 RMK A01 T01230069  RH  070%=      5-min Rain = 0
KVP1 181005Z 20011KT 12/07 A2979 RMK A01 T01230069  RH  069%=      5-min Rain = 0
KVP1 181006Z 20012KT 12/07 A2979 RMK A01 T01220069  RH  070%=      5-min Rain = 0
KVP1 181007Z 20013KT 12/07 A298 RMK A01 T01220068  RH  070%=      5-min Rain = 0
KVP1 181008Z 20012KT 12/07 A298 RMK A01 T01220068  RH  070%=      5-min Rain = 0
KVP1 181009Z 20012KT 12/07 A298 RMK A01 T01230069  RH  070%=      5-min Rain = 0
KVP1 181010Z 20012KT 12/07 A298 RMK A01 T01220068  RH  070%=      5-min Rain = 0
KVP1 181011Z 20012KT 12/07 A298 RMK A01 T01220069  RH  070%=      5-min Rain = 0
KVP1 181012Z 20011KT 12/07 A298 RMK A01 T01220069  RH  070%=      5-min Rain = 0
KVP1 181013Z 20011KT 12/07 A298 RMK A01 T01220069  RH  070%=      5-min Rain = 0
KVP1 181014Z 20011KT 12/07 A298 RMK A01 T01210069  RH  070%=      5-min Rain = 0
KVP1 181015Z 20012KT 12/07 A298 RMK A01 T01210069  RH  070%=      5-min Rain = 0
KVP1 181016Z 20012KT 12/07 A298 RMK A01 T01210069  RH  071%=      5-min Rain = 0
KVP1 181017Z 21011KT 12/07 A298 RMK A01 T01200069  RH  071%=      5-min Rain = 0
KVP1 181018Z 20011KT 12/07 A298 RMK A01 T01200069  RH  071%=      5-min Rain = 0
KVP1 181019Z 20012KT 12/07 A298 RMK A01 T01200069  RH  071%=      5-min Rain = 0
KVP1 181020Z 21012KT 12/07 A298 RMK A01 T01200069  RH  071%=      5-min Rain = 0
KVP1 181021Z 20011KT 12/07 A298 RMK A01 T01200069  RH  071%=      5-min Rain = 0
KVP1 181022Z 20010KT 12/07 A298 RMK A01 T01190069  RH  071%=      5-min Rain = 0
KVP1 181023Z 21011KT 12/07 A298 RMK A01 T01190069  RH  071%=      5-min Rain = 0
KVP1 181024Z 21011KT 12/07 A298 RMK A01 T01190070  RH  072%=      5-min Rain = 0
KVP1 181025Z 20012KT 12/07 A298 RMK A01 T01190069  RH  072%=      5-min Rain = 0
KVP1 181026Z 21010KT 12/07 A298 RMK A01 T01190070  RH  072%=      5-min Rain = 0
KVP1 181027Z 21010KT 12/07 A298 RMK A01 T01190070  RH  072%=      5-min Rain = 0
KVP1 181028Z 21011KT 12/07 A298 RMK A01 T01190070  RH  072%=      5-min Rain = 0
KVP1 181029Z 20011KT 12/07 A298 RMK A01 T01180070  RH  072%=      5-min Rain = 0
KVP1 181030Z 20011KT 12/07 A298 RMK A01 T01180070  RH  072%=      5-min Rain = 0
KVP1 181031Z 20011KT 12/07 A298 RMK A01 T01180069  RH  072%=      5-min Rain = 0
KVP1 181032Z 20011KT 12/07 A298 RMK A01 T01170069  RH  072%=      5-min Rain = 0
KVP1 181033Z 20011KT 12/07 A298 RMK A01 T01170069  RH  072%=      5-min Rain = 0
KVP1 181034Z 21010KT 12/07 A298 RMK A01 T01170069  RH  072%=      5-min Rain = 0
KVP1 181035Z 20010KT 12/07 A298 RMK A01 T01170069  RH  072%=      5-min Rain = 0
KVP1 181036Z 21011KT 12/07 A298 RMK A01 T01170070  RH  073%=      5-min Rain = 0
KVP1 181037Z 21011KT 12/07 A298 RMK A01 T01160069  RH  073%=      5-min Rain = 0
KVP1 181038Z 21010KT 12/07 A298 RMK A01 T01160070  RH  073%=      5-min Rain = 0
KVP1 181039Z 21010KT 12/07 A298 RMK A01 T01160070  RH  073%=      5-min Rain = 0
KVP1 181040Z 21010KT 12/07 A298 RMK A01 T01150069  RH  073%=      5-min Rain = 0
KVP1 181041Z 20011KT 12/07 A298 RMK A01 T01150069  RH  074%=      5-min Rain = 0
KVP1 181042Z 21011KT 12/07 A298 RMK A01 T01150069  RH  074%=      5-min Rain = 0
KVP1 181043Z 21011KT 12/07 A298 RMK A01 T01150070  RH  074%=      5-min Rain = 0
KVP1 181044Z 20010KT 12/07 A298 RMK A01 T01150070  RH  073%=      5-min Rain = 0
KVP1 181045Z 20011KT 12/07 A298 RMK A01 T01150070  RH  074%=      5-min Rain = 0
KVP1 181046Z 21012KT 12/07 A298 RMK A01 T01150070  RH  074%=      5-min Rain = 0
KVP1 181047Z 20011KT 12/07 A298 RMK A01 T01150070  RH  074%=      5-min Rain = 0
KVP1 181048Z 20011KT 12/07 A298 RMK A01 T01150071  RH  074%=      5-min Rain = 0
KVP1 181049Z 20011KT 12/07 A298 RMK A01 T01150070  RH  074%=      5-min Rain = 0
KVP1 181050Z 20011KT 11/07 A298 RMK A01 T01140070  RH  074%=      5-min Rain = 0
KVP1 181051Z 20011KT 11/07 A298 RMK A01 T01140070  RH  074%=      5-min Rain = 0
KVP1 181052Z 20011KT 11/07 A298 RMK A01 T01140071  RH  075%=      5-min Rain = 0
KVP1 181053Z 20011KT 11/07 A298 RMK A01 T01140070  RH  075%=      5-min Rain = 0
KVP1 181054Z 20011KT 11/07 A298 RMK A01 T01140071  RH  075%=      5-min Rain = 0
KVP1 181055Z 20011KT 11/07 A298 RMK A01 T01130071  RH  075%=      5-min Rain = 0
KVP1 181056Z 20011KT 11/07 A298 RMK A01 T01130071  RH  075%=      5-min Rain = 0
KVP1 181057Z 20010KT 11/07 A298 RMK A01 T01130071  RH  075%=      5-min Rain = 0
KVP1 181058Z 20010KT 11/07 A298 RMK A01 T01130071  RH  075%=      5-min Rain = 0
KVP1 181059Z 20011KT 11/07 A298 RMK A01 T01130071  RH  075%=      5-min Rain = 0
KVP1 181100Z 20011KT 11/07 A298 RMK A01 T01130071  RH  075%=      5-min Rain = 0
KVP1 181101Z 20010KT 11/07 A298 RMK A01 T01130071  RH  075%=      5-min Rain = 0
KVP1 181102Z 20010KT 11/07 A298 RMK A01 T01120071  RH  076%=      5-min Rain = 0
KVP1 181103Z 20011KT 11/07 A298 RMK A01 T01130071  RH  076%=      5-min Rain = 0
KVP1 181104Z 20011KT 11/07 A298 RMK A01 T01130071  RH  076%=      5-min Rain = 0
KVP1 181105Z 20010KT 11/07 A298 RMK A01 T01130071  RH  076%=      5-min Rain = 0
KVP1 181106Z 20010KT 11/07 A298 RMK A01 T01120071  RH  076%=      5-min Rain = 0
KVP1 181107Z 20010KT 11/07 A298 RMK A01 T01120071  RH  076%=      5-min Rain = 0
KVP1 181108Z 20010KT 11/07 A298 RMK A01 T01120071  RH  076%=      5-min Rain = 0
KVP1 181109Z 20011KT 11/07 A298 RMK A01 T01110071  RH  076%=      5-min Rain = 0
KVP1 181110Z 19011KT 11/07 A298 RMK A01 T01110071  RH  077%=      5-min Rain = 0
KVP1 181111Z 20010KT 11/07 A298 RMK A01 T01100071  RH  077%=      5-min Rain = 0
KVP1 181112Z 20010KT 11/07 A298 RMK A01 T01100071  RH  077%=      5-min Rain = 0
KVP1 181113Z 20009KT 11/07 A298 RMK A01 T01100071  RH  077%=      5-min Rain = 0
KVP1 181114Z 20009KT 11/07 A298 RMK A01 T01090071  RH  077%=      5-min Rain = 0
KVP1 181115Z 20009KT 11/07 A298 RMK A01 T01090071  RH  078%=      5-min Rain = 0
KVP1 181116Z 20010KT 11/07 A298 RMK A01 T01080072  RH  078%=      5-min Rain = 0
KVP1 181117Z 20010KT 11/07 A298 RMK A01 T01080072  RH  078%=      5-min Rain = 0
KVP1 181118Z 20010KT 11/07 A298 RMK A01 T01090073  RH  078%=      5-min Rain = 0
KVP1 181119Z 20010KT 11/07 A298 RMK A01 T01090072  RH  078%=      5-min Rain = 0
KVP1 181120Z 20011KT 11/07 A298 RMK A01 T01080072  RH  078%=      5-min Rain = 0
KVP1 181121Z 20011KT 11/07 A298 RMK A01 T01080073  RH  079%=      5-min Rain = 0
KVP1 181122Z 20010KT 11/07 A298 RMK A01 T01080073  RH  079%=      5-min Rain = 0
KVP1 181123Z 20011KT 11/07 A298 RMK A01 T01090073  RH  079%=      5-min Rain = 0
KVP1 181124Z 20010KT 11/07 A298 RMK A01 T01090073  RH  079%=      5-min Rain = 0
KVP1 181125Z 20011KT 11/07 A298 RMK A01 T01090074  RH  079%=      5-min Rain = 0
KVP1 181126Z 20010KT 11/07 A298 RMK A01 T01090074  RH  079%=      5-min Rain = 0
KVP1 181127Z 20010KT 11/08 A298 RMK A01 T01090075  RH  079%=      5-min Rain = 0
KVP1 181128Z 20011KT 11/08 A298 RMK A01 T01090075  RH  079%=      5-min Rain = 0
KVP1 181129Z 20010KT 11/08 A298 RMK A01 T01100075  RH  079%=      5-min Rain = 0
KVP1 181130Z 20009KT 11/08 A298 RMK A01 T01090075  RH  079%=      5-min Rain = 0
KVP1 181131Z 20010KT 11/08 A298 RMK A01 T01090075  RH  079%=      5-min Rain = 0
KVP1 181132Z 20010KT 11/08 A298 RMK A01 T01090075  RH  080%=      5-min Rain = 0
KVP1 181133Z 20011KT 11/08 A298 RMK A01 T01090076  RH  080%=      5-min Rain = 0
KVP1 181134Z 20009KT 11/08 A298 RMK A01 T01090075  RH  080%=      5-min Rain = 0
KVP1 181135Z 20009KT 11/08 A298 RMK A01 T01080075  RH  080%=      5-min Rain = 0
KVP1 181136Z 20010KT 11/08 A298 RMK A01 T01080076  RH  081%=      5-min Rain = 0
KVP1 181137Z 20010KT 11/08 A298 RMK A01 T01080076  RH  081%=      5-min Rain = 0
KVP1 181138Z 20010KT 11/08 A298 RMK A01 T01080076  RH  081%=      5-min Rain = 0
KVP1 181139Z 20010KT 11/08 A298 RMK A01 T01080076  RH  081%=      5-min Rain = 0
KVP1 181140Z 20010KT 11/08 A298 RMK A01 T01090077  RH  080%=      5-min Rain = 0
KVP1 181141Z 20011KT 11/08 A298 RMK A01 T01090077  RH  081%=      5-min Rain = 0
KVP1 181142Z 21011KT 11/08 A298 RMK A01 T01100077  RH  081%=      5-min Rain = 0
KVP1 181143Z 20010KT 11/08 A298 RMK A01 T01100077  RH  080%=      5-min Rain = 0
KVP1 181144Z 20010KT 11/08 A298 RMK A01 T01100078  RH  081%=      5-min Rain = 0
KVP1 181145Z 20009KT 11/08 A298 RMK A01 T01090078  RH  081%=      5-min Rain = 0
KVP1 181146Z 20010KT 11/08 A298 RMK A01 T01090078  RH  081%=      5-min Rain = 0
KVP1 181147Z 20010KT 11/08 A298 RMK A01 T01090078  RH  081%=      5-min Rain = 0
KVP1 181148Z 20009KT 11/08 A298 RMK A01 T01090078  RH  081%=      5-min Rain = 0
KVP1 181149Z 20010KT 11/08 A298 RMK A01 T01090079  RH  081%=      5-min Rain = 0
KVP1 181150Z 20011KT 11/08 A298 RMK A01 T01100079  RH  081%=      5-min Rain = 0
KVP1 181151Z 20010KT 11/08 A298 RMK A01 T01100079  RH  081%=      5-min Rain = 0
KVP1 181152Z 21010KT 11/08 A298 RMK A01 T01110079  RH  081%=      5-min Rain = 0
KVP1 181153Z 20011KT 11/08 A298 RMK A01 T01100079  RH  081%=      5-min Rain = 0
KVP1 181154Z 20010KT 11/08 A298 RMK A01 T01100080  RH  081%=      5-min Rain = 0
KVP1 181155Z 20010KT 11/08 A298 RMK A01 T01100079  RH  081%=      5-min Rain = 0
KVP1 181156Z 20011KT 11/08 A298 RMK A01 T01100079  RH  082%=      5-min Rain = 0
KVP1 181157Z 20011KT 11/08 A298 RMK A01 T01100080  RH  082%=      5-min Rain = 0
KVP1 181158Z 20010KT 11/08 A298 RMK A01 T01100080  RH  082%=      5-min Rain = 0
KVP1 181159Z 20010KT 11/08 A298 RMK A01 T01100080  RH  082%=      5-min Rain = 0
KVP1 181200Z 21010KT 11/08 A298 RMK A01 T01100081  RH  082%=      5-min Rain = 0
KVP1 181201Z 21011KT 11/08 A298 RMK A01 T01090081  RH  083%=      5-min Rain = 0
KVP1 181202Z 21011KT 11/08 A298 RMK A01 T01090081  RH  083%=      5-min Rain = 0
KVP1 181203Z 21009KT 11/08 A298 RMK A01 T01100081  RH  083%=      5-min Rain = 0
KVP1 181204Z 21010KT 11/08 A298 RMK A01 T01100082  RH  083%=      5-min Rain = 0
KVP1 181205Z 21009KT 11/08 A298 RMK A01 T01090081  RH  083%=      5-min Rain = 0
KVP1 181206Z 20011KT 11/08 A298 RMK A01 T01090082  RH  083%=      5-min Rain = 0
KVP1 181207Z 21010KT 11/08 A298 RMK A01 T01090081  RH  083%=      5-min Rain = 0
KVP1 181208Z 21010KT 11/08 A298 RMK A01 T01090082  RH  083%=      5-min Rain = 0
KVP1 181209Z 21010KT 11/08 A298 RMK A01 T01090082  RH  083%=      5-min Rain = 0
KVP1 181210Z 21011KT 11/08 A298 RMK A01 T01080082  RH  084%=      5-min Rain = 0
KVP1 181211Z 21011KT 11/08 A298 RMK A01 T01090082  RH  084%=      5-min Rain = 0
KVP1 181212Z 21011KT 11/08 A298 RMK A01 T01090082  RH  084%=      5-min Rain = 0
KVP1 181213Z 21010KT 11/08 A298 RMK A01 T01090082  RH  084%=      5-min Rain = 0
KVP1 181214Z 20011KT 11/08 A298 RMK A01 T01090083  RH  084%=      5-min Rain = 0
KVP1 181215Z 21010KT 11/08 A298 RMK A01 T01090083  RH  084%=      5-min Rain = 0
KVP1 181216Z 21010KT 11/08 A298 RMK A01 T01090083  RH  084%=      5-min Rain = 0
KVP1 181217Z 21011KT 11/08 A298 RMK A01 T01090084  RH  084%=      5-min Rain = 0
KVP1 181218Z 21010KT 11/08 A298 RMK A01 T01090084  RH  084%=      5-min Rain = 0
KVP1 181219Z 21011KT 11/08 A298 RMK A01 T01090084  RH  085%=      5-min Rain = 0
KVP1 181220Z 21011KT 11/09 A298 RMK A01 T01100085  RH  085%=      5-min Rain = 0
KVP1 181221Z 20011KT 11/09 A298 RMK A01 T01100085  RH  084%=      5-min Rain = 0
KVP1 181222Z 20010KT 11/09 A298 RMK A01 T01100085  RH  085%=      5-min Rain = 0
KVP1 181223Z 20012KT 11/09 A298 RMK A01 T01100085  RH  085%=      5-min Rain = 0
KVP1 181224Z 21011KT 11/09 A298 RMK A01 T01100085  RH  085%=      5-min Rain = 0
KVP1 181225Z 21011KT 11/09 A298 RMK A01 T01100085  RH  085%=      5-min Rain = 0
KVP1 181226Z 21011KT 11/09 A298 RMK A01 T01100085  RH  085%=      5-min Rain = 0
KVP1 181227Z 21012KT 11/09 A298 RMK A01 T01100086  RH  085%=      5-min Rain = 0
KVP1 181228Z 20011KT 11/09 A298 RMK A01 T01100085  RH  085%=      5-min Rain = 0
KVP1 181229Z 20011KT 11/09 A298 RMK A01 T01100086  RH  085%=      5-min Rain = 0
KVP1 181230Z 20010KT 11/09 A298 RMK A01 T01100085  RH  085%=      5-min Rain = 0
KVP1 181231Z 21010KT 11/09 A298 RMK A01 T01100086  RH  085%=      5-min Rain = 0
KVP1 181232Z 20010KT 11/09 A298 RMK A01 T01100086  RH  085%=      5-min Rain = 0
KVP1 181233Z 21009KT 11/09 A298 RMK A01 T01090086  RH  085%=      5-min Rain = 0
KVP1 181234Z 20010KT 11/09 A298 RMK A01 T01090085  RH  085%=      5-min Rain = 0
KVP1 181235Z 21009KT 11/09 A298 RMK A01 T01090086  RH  086%=      5-min Rain = 0
KVP1 181236Z 21009KT 11/09 A298 RMK A01 T01090085  RH  085%=      5-min Rain = 0
KVP1 181237Z 21009KT 11/09 A298 RMK A01 T01080085  RH  086%=      5-min Rain = 0
KVP1 181238Z 21009KT 11/09 A298 RMK A01 T01080085  RH  086%=      5-min Rain = 0
KVP1 181239Z 21008KT 11/09 A298 RMK A01 T01070086  RH  086%=      5-min Rain = 0
KVP1 181240Z 21010KT 11/09 A298 RMK A01 T01080086  RH  086%=      5-min Rain = 0
KVP1 181241Z 21010KT 11/09 A298 RMK A01 T01080086  RH  087%=      5-min Rain = 0
KVP1 181242Z 21011KT 11/09 A298 RMK A01 T01080087  RH  086%=      5-min Rain = 0
KVP1 181243Z 20010KT 11/09 A298 RMK A01 T01090087  RH  086%=      5-min Rain = 0
KVP1 181244Z 21010KT 11/09 A298 RMK A01 T01090087  RH  086%=      5-min Rain = 0
KVP1 181245Z 21011KT 11/09 A298 RMK A01 T01090087  RH  086%=      5-min Rain = 0
KVP1 181246Z 21011KT 11/09 A298 RMK A01 T01090087  RH  086%=      5-min Rain = 0
KVP1 181247Z 20012KT 11/09 A298 RMK A01 T01100088  RH  086%=      5-min Rain = 0
KVP1 181248Z 21010KT 11/09 A298 RMK A01 T01100088  RH  086%=      5-min Rain = 0
KVP1 181249Z 21011KT 11/09 A298 RMK A01 T01100088  RH  086%=      5-min Rain = 0
KVP1 181250Z 20011KT 11/09 A298 RMK A01 T01100088  RH  086%=      5-min Rain = 0
KVP1 181251Z 20011KT 11/09 A2979 RMK A01 T01100088  RH  086%=      5-min Rain = 0
KVP1 181252Z 20011KT 11/09 A2979 RMK A01 T01100088  RH  086%=      5-min Rain = 0
KVP1 181253Z 20010KT 11/09 A2979 RMK A01 T01100088  RH  086%=      5-min Rain = 0
KVP1 181254Z 20010KT 11/09 A2979 RMK A01 T01100088  RH  086%=      5-min Rain = 0
KVP1 181255Z 20010KT 11/09 A298 RMK A01 T01100088  RH  086%=      5-min Rain = 0
KVP1 181256Z 20010KT 11/09 A298 RMK A01 T01100088  RH  086%=      5-min Rain = 0
KVP1 181257Z 20010KT 11/09 A298 RMK A01 T01100088  RH  087%=      5-min Rain = 0
KVP1 181258Z 20011KT 11/09 A298 RMK A01 T01100088  RH  087%=      5-min Rain = 0
KVP1 181259Z 20011KT 11/09 A298 RMK A01 T01090088  RH  087%=      5-min Rain = 0
KVP1 181300Z 20009KT 11/09 A298 RMK A01 T01090088  RH  087%=      5-min Rain = 0
KVP1 181301Z 21010KT 11/09 A298 RMK A01 T01090088  RH  087%=      5-min Rain = 0
KVP1 181302Z 21010KT 11/09 A298 RMK A01 T01100089  RH  087%=      5-min Rain = 0
KVP1 181303Z 20010KT 11/09 A298 RMK A01 T01100089  RH  087%=      5-min Rain = 0
KVP1 181304Z 21009KT 11/09 A298 RMK A01 T01100089  RH  087%=      5-min Rain = 0
KVP1 181305Z 21010KT 11/09 A298 RMK A01 T01100089  RH  087%=      5-min Rain = 0
KVP1 181306Z 21010KT 11/09 A298 RMK A01 T01100090  RH  087%=      5-min Rain = 0
KVP1 181307Z 21009KT 11/09 A298 RMK A01 T01110090  RH  087%=      5-min Rain = 0
KVP1 181308Z 20010KT 11/09 A298 RMK A01 T01110090  RH  087%=      5-min Rain = 0
KVP1 181309Z 20010KT 11/09 A298 RMK A01 T01110090  RH  087%=      5-min Rain = 0
KVP1 181310Z 20010KT 11/09 A298 RMK A01 T01110090  RH  087%=      5-min Rain = 0
KVP1 181311Z 20012KT 11/09 A2979 RMK A01 T01110091  RH  087%=      5-min Rain = 0
KVP1 181312Z 20011KT 11/09 A298 RMK A01 T01130092  RH  087%=      5-min Rain = 0
KVP1 181313Z 20011KT 11/09 A2979 RMK A01 T01130092  RH  086%=      5-min Rain = 0
KVP1 181314Z 20011KT 11/09 A2979 RMK A01 T01140092  RH  086%=      5-min Rain = 0
KVP1 181315Z 20012KT 11/09 A2979 RMK A01 T01140092  RH  086%=      5-min Rain = 0
KVP1 181316Z 20011KT 11/09 A2979 RMK A01 T01140092  RH  086%=      5-min Rain = 0
KVP1 181317Z 20010KT 12/09 A2979 RMK A01 T01150092  RH  086%=      5-min Rain = 0
KVP1 181318Z 20010KT 12/09 A2979 RMK A01 T01150092  RH  086%=      5-min Rain = 0
KVP1 181319Z 21011KT 12/09 A2979 RMK A01 T01150093  RH  086%=      5-min Rain = 0
KVP1 181320Z 21011KT 12/09 A2979 RMK A01 T01160094  RH  086%=      5-min Rain = 0
KVP1 181321Z 21009KT 12/09 A2979 RMK A01 T01160093  RH  086%=      5-min Rain = 0
KVP1 181322Z 21010KT 12/09 A2979 RMK A01 T01170094  RH  086%=      5-min Rain = 0
KVP1 181323Z 21010KT 12/09 A2979 RMK A01 T01170094  RH  086%=      5-min Rain = 0
KVP1 181324Z 21012KT 12/09 A2979 RMK A01 T01170094  RH  086%=      5-min Rain = 0
KVP1 181325Z 21010KT 12/09 A2979 RMK A01 T01180094  RH  086%=      5-min Rain = 0
KVP1 181326Z 21011KT 12/10 A2979 RMK A01 T01190095  RH  085%=      5-min Rain = 0
KVP1 181327Z 21013KT 12/10 A2979 RMK A01 T01200095  RH  085%=      5-min Rain = 0
KVP1 181328Z 21010KT 12/10 A2979 RMK A01 T01210095  RH  084%=      5-min Rain = 0
KVP1 181329Z 20010KT 12/10 A2979 RMK A01 T01210095  RH  084%=      5-min Rain = 0
KVP1 181330Z 21011KT 12/10 A2979 RMK A01 T01220096  RH  084%=      5-min Rain = 0
KVP1 181331Z 21011KT 12/10 A2979 RMK A01 T01220096  RH  084%=      5-min Rain = 0
KVP1 181332Z 21011KT 12/10 A2979 RMK A01 T01230096  RH  084%=      5-min Rain = 0
KVP1 181333Z 20011KT 12/10 A2979 RMK A01 T01230096  RH  084%=      5-min Rain = 0
KVP1 181334Z 21010KT 12/10 A2979 RMK A01 T01240097  RH  084%=      5-min Rain = 0
KVP1 181335Z 20011KT 12/10 A2979 RMK A01 T01240097  RH  083%=      5-min Rain = 0
KVP1 181336Z 20012KT 13/10 A2979 RMK A01 T01250097  RH  083%=      5-min Rain = 0
KVP1 181337Z 21013KT 13/10 A2979 RMK A01 T01260097  RH  083%=      5-min Rain = 0
KVP1 181338Z 21012KT 13/10 A298 RMK A01 T01260098  RH  083%=      5-min Rain = 0
KVP1 181339Z 20013KT 13/10 A298 RMK A01 T01270098  RH  083%=      5-min Rain = 0
KVP1 181340Z 20011KT 13/10 A298 RMK A01 T01280098  RH  082%=      5-min Rain = 0
KVP1 181341Z 20012KT 13/10 A2979 RMK A01 T01280098  RH  082%=      5-min Rain = 0
KVP1 181342Z 21012KT 13/10 A2979 RMK A01 T01280098  RH  082%=      5-min Rain = 0
KVP1 181343Z 20012KT 13/10 A2979 RMK A01 T01280098  RH  082%=      5-min Rain = 0
KVP1 181344Z 21012KT 13/10 A2979 RMK A01 T01290099  RH  082%=      5-min Rain = 0
KVP1 181345Z 21012KT 13/10 A2979 RMK A01 T01300099  RH  082%=      5-min Rain = 0
KVP1 181346Z 21012KT 13/10 A2979 RMK A01 T01300099  RH  081%=      5-min Rain = 0
KVP1 181347Z 20013KT 13/10 A2979 RMK A01 T01310099  RH  081%=      5-min Rain = 0
KVP1 181348Z 20012KT 13/10 A2979 RMK A01 T01320100  RH  081%=      5-min Rain = 0
KVP1 181349Z 20014KT 13/10 A2979 RMK A01 T01320100  RH  081%=      5-min Rain = 0
KVP1 181350Z 20016KT 13/10 A2979 RMK A01 T01320099  RH  080%=      5-min Rain = 0
KVP1 181351Z 20015KT 13/10 A2979 RMK A01 T01320099  RH  080%=      5-min Rain = 0
KVP1 181352Z 20014G19KT 13/10 A2979 RMK A01 T01330100  RH  080%=      5-min Rain = 0
KVP1 181353Z 20013KT 13/10 A2979 RMK A01 T01330099  RH  080%=      5-min Rain = 0
KVP1 181354Z 20014G19KT 13/10 A2979 RMK A01 T01330100  RH  080%=      5-min Rain = 0
KVP1 181355Z 20013G18KT 13/10 A2979 RMK A01 T01330100  RH  080%=      5-min Rain = 0
KVP1 181356Z 20014KT 13/10 A2979 RMK A01 T01340100  RH  080%=      5-min Rain = 0
KVP1 181357Z 20015KT 13/10 A2979 RMK A01 T01340100  RH  080%=      5-min Rain = 0
KVP1 181358Z 20012KT 13/10 A2979 RMK A01 T01330100  RH  080%=      5-min Rain = 0
KVP1 181359Z 20013KT 13/10 A2979 RMK A01 T01340100  RH  080%=      5-min Rain = 0
KVP1 181400Z 20015KT 13/10 A2979 RMK A01 T01340100  RH  080%=      5-min Rain = 0
KVP1 181401Z 20012KT 13/10 A2979 RMK A01 T01340100  RH  080%=      5-min Rain = 0
KVP1 181402Z 20016KT 14/10 A2979 RMK A01 T01350100  RH  080%=      5-min Rain = 0
KVP1 181403Z 20014KT 14/10 A2979 RMK A01 T01350100  RH  079%=      5-min Rain = 0
KVP1 181404Z 20014KT 14/10 A2979 RMK A01 T01350100  RH  080%=      5-min Rain = 0
KVP1 181405Z 20013KT 14/10 A2979 RMK A01 T01350101  RH  079%=      5-min Rain = 0
KVP1 181406Z 20012KT 14/10 A2979 RMK A01 T01360101  RH  079%=      5-min Rain = 0
KVP1 181407Z 20013KT 14/10 A2979 RMK A01 T01370101  RH  079%=      5-min Rain = 0
KVP1 181408Z 20014KT 14/10 A2979 RMK A01 T01370101  RH  079%=      5-min Rain = 0
KVP1 181409Z 20014KT 14/10 A2979 RMK A01 T01370101  RH  079%=      5-min Rain = 0
KVP1 181410Z 20014KT 14/10 A2979 RMK A01 T01370101  RH  079%=      5-min Rain = 0
KVP1 181411Z 20015KT 14/10 A2979 RMK A01 T01370101  RH  079%=      5-min Rain = 0
KVP1 181412Z 20012KT 14/10 A2979 RMK A01 T01380101  RH  079%=      5-min Rain = 0
KVP1 181413Z 20012KT 14/10 A298 RMK A01 T01390102  RH  078%=      5-min Rain = 0
KVP1 181414Z 20012KT 14/10 A298 RMK A01 T01400102  RH  078%=      5-min Rain = 0
KVP1 181415Z 20011G16KT 14/10 A298 RMK A01 T01410102  RH  078%=      5-min Rain = 0
KVP1 181416Z 20011KT 14/10 A298 RMK A01 T01420103  RH  077%=      5-min Rain = 0
KVP1 181417Z 21013KT 14/10 A298 RMK A01 T01420102  RH  077%=      5-min Rain = 0
KVP1 181418Z 22013G18KT 14/10 A298 RMK A01 T01420102  RH  077%=      5-min Rain = 0
KVP1 181419Z 21013KT 14/10 A298 RMK A01 T01430103  RH  077%=      5-min Rain = 0
KVP1 181420Z 21012KT 14/10 A298 RMK A01 T01430102  RH  076%=      5-min Rain = 0
KVP1 181421Z 21011KT 14/10 A298 RMK A01 T01440103  RH  076%=      5-min Rain = 0
KVP1 181422Z 21011KT 15/10 A298 RMK A01 T01450103  RH  076%=      5-min Rain = 0
KVP1 181423Z 21015KT 15/10 A298 RMK A01 T01450103  RH  076%=      5-min Rain = 0
KVP1 181424Z 21013KT 15/10 A298 RMK A01 T01460103  RH  076%=      5-min Rain = 0
KVP1 181425Z 21013KT 15/10 A298 RMK A01 T01460103  RH  075%=      5-min Rain = 0
KVP1 181426Z 21014KT 15/10 A298 RMK A01 T01460103  RH  075%=      5-min Rain = 0
KVP1 181427Z 21013KT 15/10 A298 RMK A01 T01460103  RH  075%=      5-min Rain = 0
KVP1 181428Z 21011KT 15/10 A298 RMK A01 T01470104  RH  075%=      5-min Rain = 0
KVP1 181429Z 21012KT 15/11 A298 RMK A01 T01480105  RH  075%=      5-min Rain = 0
KVP1 181430Z 21014KT 15/10 A298 RMK A01 T01490104  RH  074%=      5-min Rain = 0
KVP1 181431Z 20014KT 15/10 A298 RMK A01 T01500104  RH  074%=      5-min Rain = 0
KVP1 181432Z 21012KT 15/11 A298 RMK A01 T01510105  RH  074%=      5-min Rain = 0
KVP1 181433Z 20013KT 15/10 A298 RMK A01 T01510104  RH  074%=      5-min Rain = 0
KVP1 181434Z 21014KT 15/10 A298 RMK A01 T01520104  RH  073%=      5-min Rain = 0
KVP1 181435Z 21015KT 15/10 A298 RMK A01 T01510104  RH  074%=      5-min Rain = 0
KVP1 181436Z 21016KT 15/10 A2979 RMK A01 T01510104  RH  073%=      5-min Rain = 0
KVP1 181437Z 21014KT 15/10 A298 RMK A01 T01510104  RH  073%=      5-min Rain = 0
KVP1 181438Z 21015KT 15/10 A298 RMK A01 T01510104  RH  074%=      5-min Rain = 0
KVP1 181439Z 20013KT 15/10 A2979 RMK A01 T01510104  RH  074%=      5-min Rain = 0
KVP1 181440Z 20013KT 15/10 A2979 RMK A01 T01520104  RH  073%=      5-min Rain = 0
KVP1 181441Z 21014KT 15/11 A298 RMK A01 T01530105  RH  073%=      5-min Rain = 0
KVP1 181442Z 21014KT 15/11 A2979 RMK A01 T01530105  RH  073%=      5-min Rain = 0
KVP1 181443Z 21014KT 15/11 A2979 RMK A01 T01540105  RH  073%=      5-min Rain = 0
KVP1 181444Z 20014KT 16/11 A2979 RMK A01 T01550105  RH  072%=      5-min Rain = 0
KVP1 181445Z 21013KT 16/11 A298 RMK A01 T01550105  RH  072%=      5-min Rain = 0
KVP1 181446Z 21015KT 16/11 A298 RMK A01 T01560105  RH  072%=      5-min Rain = 0
KVP1 181447Z 21013KT 16/11 A298 RMK A01 T01560105  RH  072%=      5-min Rain = 0
KVP1 181448Z 21016KT 16/11 A2979 RMK A01 T01580106  RH  071%=      5-min Rain = 0
KVP1 181449Z 21014KT 16/11 A2979 RMK A01 T01580105  RH  071%=      5-min Rain = 0
KVP1 181450Z 21014KT 16/11 A2979 RMK A01 T01580106  RH  071%=      5-min Rain = 0
KVP1 181451Z 21016KT 16/11 A2979 RMK A01 T01590106  RH  071%=      5-min Rain = 0
KVP1 181452Z 21015KT 16/11 A2979 RMK A01 T01590105  RH  070%=      5-min Rain = 0
KVP1 181453Z 21015KT 16/11 A2979 RMK A01 T01590105  RH  070%=      5-min Rain = 0
KVP1 181454Z 21014KT 16/11 A2979 RMK A01 T01580105  RH  071%=      5-min Rain = 0
KVP1 181455Z 21014KT 16/11 A2979 RMK A01 T01590106  RH  071%=      5-min Rain = 0
KVP1 181456Z 21014KT 16/11 A2979 RMK A01 T01610106  RH  070%=      5-min Rain = 0
KVP1 181457Z 21013KT 16/11 A2979 RMK A01 T01610106  RH  070%=      5-min Rain = 0
KVP1 181458Z 21011KT 16/11 A298 RMK A01 T01620107  RH  070%=      5-min Rain = 0
KVP1 181459Z 21013KT 16/11 A2979 RMK A01 T01640107  RH  069%=      5-min Rain = 0
KVP1 181500Z 20012KT 17/11 A2979 RMK A01 T01650107  RH  069%=      5-min Rain = 0
KVP1 181501Z 21013KT 17/11 A2979 RMK A01 T01650107  RH  069%=      5-min Rain = 0
KVP1 181502Z 21016KT 17/11 A2979 RMK A01 T01660106  RH  068%=      5-min Rain = 0
KVP1 181503Z 21016KT 17/11 A2979 RMK A01 T01650105  RH  068%=      5-min Rain = 0
KVP1 181504Z 21015KT 16/11 A2979 RMK A01 T01630106  RH  069%=      5-min Rain = 0
KVP1 181505Z 21015KT 16/11 A2979 RMK A01 T01630106  RH  069%=      5-min Rain = 0
KVP1 181506Z 20014KT 16/11 A2979 RMK A01 T01640106  RH  069%=      5-min Rain = 0
KVP1 181507Z 21013KT 17/11 A2979 RMK A01 T01650106  RH  068%=      5-min Rain = 0
KVP1 181508Z 20014KT 17/11 A2979 RMK A01 T01650106  RH  068%=      5-min Rain = 0
KVP1 181509Z 20012KT 17/11 A2979 RMK A01 T01660107  RH  068%=      5-min Rain = 0
KVP1 181510Z 20013G18KT 17/11 A2979 RMK A01 T01690110  RH  068%=      5-min Rain = 0
KVP1 181511Z 21015KT 17/11 A2979 RMK A01 T01710107  RH  066%=      5-min Rain = 0
KVP1 181512Z 21014KT 17/11 A2979 RMK A01 T01710108  RH  066%=      5-min Rain = 0
KVP1 181513Z 20014KT 17/11 A2979 RMK A01 T01710108  RH  066%=      5-min Rain = 0
KVP1 181514Z 20015KT 17/11 A2979 RMK A01 T01720107  RH  066%=      5-min Rain = 0
KVP1 181515Z 20014KT 17/11 A2979 RMK A01 T01720107  RH  065%=      5-min Rain = 0
KVP1 181516Z 20015KT 17/11 A2978 RMK A01 T01740107  RH  065%=      5-min Rain = 0
KVP1 181517Z 20018KT 17/11 A2978 RMK A01 T01740106  RH  064%=      5-min Rain = 0
KVP1 181518Z 21018KT 17/11 A2978 RMK A01 T01730106  RH  065%=      5-min Rain = 0
KVP1 181519Z 21018KT 17/11 A2978 RMK A01 T01720106  RH  065%=      5-min Rain = 0
KVP1 181520Z 21016KT 17/11 A2978 RMK A01 T01720105  RH  065%=      5-min Rain = 0
KVP1 181521Z 21014KT 17/11 A2978 RMK A01 T01730108  RH  065%=      5-min Rain = 0
KVP1 181522Z 21015KT 18/11 A2978 RMK A01 T01760109  RH  065%=      5-min Rain = 0
KVP1 181523Z 21016G21KT 18/11 A2978 RMK A01 T01770107  RH  064%=      5-min Rain = 0
KVP1 181524Z 21015KT 18/11 A2978 RMK A01 T01780107  RH  063%=      5-min Rain = 0
KVP1 181525Z 21016KT 18/11 A2978 RMK A01 T01780108  RH  064%=      5-min Rain = 0
KVP1 181526Z 20013KT 18/11 A2978 RMK A01 T01780108  RH  063%=      5-min Rain = 0
KVP1 181527Z 20013G18KT 18/11 A2978 RMK A01 T01790109  RH  064%=      5-min Rain = 0
KVP1 181528Z 21015KT 18/11 A2978 RMK A01 T01810109  RH  063%=      5-min Rain = 0
KVP1 181529Z 20014KT 18/11 A2978 RMK A01 T01810109  RH  062%=      5-min Rain = 0
KVP1 181530Z 19016KT 18/11 A2978 RMK A01 T01810108  RH  062%=      5-min Rain = 0
KVP1 181531Z 20018KT 18/11 A2978 RMK A01 T01820108  RH  062%=      5-min Rain = 0
KVP1 181532Z 20016KT 18/11 A2978 RMK A01 T01810107  RH  062%=      5-min Rain = 0
KVP1 181533Z 21015KT 18/11 A2978 RMK A01 T01810107  RH  062%=      5-min Rain = 0
KVP1 181534Z 21015KT 18/11 A2978 RMK A01 T01810109  RH  063%=      5-min Rain = 0
KVP1 181535Z 21016KT 18/11 A2978 RMK A01 T01820108  RH  062%=      5-min Rain = 0
KVP1 181536Z 20016KT 18/11 A2978 RMK A01 T01820108  RH  062%=      5-min Rain = 0
KVP1 181537Z 21013KT 18/11 A2978 RMK A01 T01830110  RH  062%=      5-min Rain = 0
KVP1 181538Z 20014KT 19/11 A2978 RMK A01 T01860109  RH  061%=      5-min Rain = 0
KVP1 181539Z 20016KT 19/11 A2978 RMK A01 T01870109  RH  061%=      5-min Rain = 0
KVP1 181540Z 21013KT 19/11 A2978 RMK A01 T01860109  RH  061%=      5-min Rain = 0
KVP1 181541Z 22013KT 19/11 A2978 RMK A01 T01860111  RH  062%=      5-min Rain = 0
KVP1 181542Z 21016KT 19/11 A2978 RMK A01 T01870110  RH  061%=      5-min Rain = 0
KVP1 181543Z 21016KT 19/11 A2978 RMK A01 T01860109  RH  061%=      5-min Rain = 0
KVP1 181544Z 22015G20KT 19/11 A2978 RMK A01 T01860109  RH  061%=      5-min Rain = 0
KVP1 181545Z 22016KT 19/11 A2978 RMK A01 T01870110  RH  061%=      5-min Rain = 0
KVP1 181546Z 21015KT 19/11 A2978 RMK A01 T01870109  RH  061%=      5-min Rain = 0
KVP1 181547Z 21013KT 19/11 A2978 RMK A01 T01860110  RH  061%=      5-min Rain = 0
KVP1 181548Z 20017KT 19/11 A2978 RMK A01 T01880110  RH  060%=      5-min Rain = 0
KVP1 181549Z 20016KT 19/11 A2978 RMK A01 T01870109  RH  060%=      5-min Rain = 0
KVP1 181550Z 20015KT 19/11 A2978 RMK A01 T01870110  RH  061%=      5-min Rain = 0
KVP1 181551Z 21014KT 19/11 A2978 RMK A01 T01870110  RH  061%=      5-min Rain = 0
KVP1 181552Z 22014KT 19/11 A2978 RMK A01 T01880112  RH  061%=      5-min Rain = 0
KVP1 181553Z 21016KT 19/11 A2978 RMK A01 T01910112  RH  060%=      5-min Rain = 0
KVP1 181554Z 21015KT 19/11 A2978 RMK A01 T01910111  RH  060%=      5-min Rain = 0
KVP1 181555Z 21015KT 19/11 A2978 RMK A01 T01910112  RH  060%=      5-min Rain = 0
KVP1 181556Z 22014KT 19/11 A2977 RMK A01 T01920112  RH  060%=      5-min Rain = 0
KVP1 181557Z 22016KT 19/11 A2977 RMK A01 T01940112  RH  059%=      5-min Rain = 0
KVP1 181558Z 21017KT 19/11 A2977 RMK A01 T01940110  RH  058%=      5-min Rain = 0
KVP1 181559Z 21017KT 19/11 A2977 RMK A01 T01920110  RH  059%=      5-min Rain = 0
KVP1 181600Z 21017KT 19/11 A2977 RMK A01 T01920111  RH  059%=      5-min Rain = 0
KVP1 181601Z 22016KT 19/11 A2977 RMK A01 T01920111  RH  059%=      5-min Rain = 0
KVP1 181602Z 21014KT 19/11 A2977 RMK A01 T01920111  RH  059%=      5-min Rain = 0
KVP1 181603Z 22016KT 19/11 A2977 RMK A01 T01940113  RH  060%=      5-min Rain = 0
KVP1 181604Z 21016KT 20/11 A2977 RMK A01 T01960112  RH  058%=      5-min Rain = 0
KVP1 181605Z 21017KT 20/11 A2977 RMK A01 T01960112  RH  058%=      5-min Rain = 0
KVP1 181606Z 21014KT 20/11 A2977 RMK A01 T01950111  RH  058%=      5-min Rain = 0
KVP1 181607Z 21016KT 20/11 A2977 RMK A01 T01950112  RH  059%=      5-min Rain = 0
KVP1 181608Z 21017KT 20/11 A2977 RMK A01 T01960112  RH  058%=      5-min Rain = 0
KVP1 181609Z 21015KT 20/11 A2977 RMK A01 T01960112  RH  058%=      5-min Rain = 0
KVP1 181610Z 21015KT 20/11 A2977 RMK A01 T01960112  RH  058%=      5-min Rain = 0
KVP1 181611Z 22015KT 20/11 A2977 RMK A01 T01980113  RH  058%=      5-min Rain = 0
KVP1 181612Z 22016KT 20/11 A2977 RMK A01 T01980112  RH  058%=      5-min Rain = 0
KVP1 181613Z 21013KT 20/11 A2977 RMK A01 T01980113  RH  058%=      5-min Rain = 0
KVP1 181614Z 20015KT 20/11 A2977 RMK A01 T01990113  RH  058%=      5-min Rain = 0
KVP1 181615Z 20015KT 20/11 A2977 RMK A01 T01990111  RH  057%=      5-min Rain = 0
KVP1 181616Z 21015KT 20/11 A2977 RMK A01 T01990113  RH  058%=      5-min Rain = 0
KVP1 181617Z 20013KT 20/11 A2977 RMK A01 T02010113  RH  057%=      5-min Rain = 0
KVP1 181618Z 21015KT 20/11 A2977 RMK A01 T02010113  RH  057%=      5-min Rain = 0
KVP1 181619Z 20015KT 20/11 A2977 RMK A01 T02000114  RH  057%=      5-min Rain = 0
KVP1 181620Z 20015KT 20/11 A2977 RMK A01 T02010114  RH  057%=      5-min Rain = 0
KVP1 181621Z 21013KT 20/11 A2977 RMK A01 T02020114  RH  057%=      5-min Rain = 0
KVP1 181622Z 21014G20KT 20/11 A2976 RMK A01 T02030114  RH  057%=      5-min Rain = 0
KVP1 181623Z 21015G20KT 20/11 A2976 RMK A01 T02040114  RH  056%=      5-min Rain = 0
KVP1 181624Z 21016KT 21/11 A2977 RMK A01 T02050112  RH  055%=      5-min Rain = 0
KVP1 181625Z 22015KT 21/11 A2977 RMK A01 T02050114  RH  056%=      5-min Rain = 0
KVP1 181626Z 21015KT 21/11 A2977 RMK A01 T02060114  RH  055%=      5-min Rain = 0
KVP1 181627Z 21017KT 21/12 A2977 RMK A01 T02080115  RH  055%=      5-min Rain = 0
KVP1 181628Z 22018KT 21/11 A2976 RMK A01 T02100114  RH  054%=      5-min Rain = 0
KVP1 181629Z 21015KT 21/11 A2976 RMK A01 T02080114  RH  055%=      5-min Rain = 0
KVP1 181630Z 22014G20KT 21/12 A2976 RMK A01 T02080116  RH  056%=      5-min Rain = 0
KVP1 181631Z 21016KT 21/11 A2976 RMK A01 T02090114  RH  054%=      5-min Rain = 0
KVP1 181632Z 21015KT 21/11 A2976 RMK A01 T02090114  RH  054%=      5-min Rain = 0
KVP1 181633Z 21013KT 21/12 A2976 RMK A01 T02090116  RH  055%=      5-min Rain = 0
KVP1 181634Z 22016KT 21/12 A2976 RMK A01 T02090115  RH  055%=      5-min Rain = 0
KVP1 181635Z 23012KT 21/12 A2976 RMK A01 T02090115  RH  055%=      5-min Rain = 0
KVP1 181636Z 21015KT 21/12 A2976 RMK A01 T02090115  RH  055%=      5-min Rain = 0
KVP1 181637Z 20014KT 21/11 A2976 RMK A01 T02090114  RH  054%=      5-min Rain = 0
KVP1 181638Z 21014KT 21/12 A2976 RMK A01 T02110116  RH  055%=      5-min Rain = 0
KVP1 181639Z 22014KT 21/12 A2976 RMK A01 T02130116  RH  054%=      5-min Rain = 0
KVP1 181640Z 21011KT 21/12 A2976 RMK A01 T02140116  RH  054%=      5-min Rain = 0
KVP1 181641Z 21011KT 21/12 A2976 RMK A01 T02140117  RH  054%=      5-min Rain = 0
KVP1 181642Z 20013KT 22/12 A2976 RMK A01 T02160117  RH  054%=      5-min Rain = 0
KVP1 181643Z 20011KT 22/12 A2976 RMK A01 T02170118  RH  053%=      5-min Rain = 0
KVP1 181644Z 21014KT 22/12 A2976 RMK A01 T02190118  RH  053%=      5-min Rain = 0
KVP1 181645Z 22014KT 22/12 A2976 RMK A01 T02210118  RH  052%=      5-min Rain = 0
KVP1 181646Z 21016KT 22/12 A2975 RMK A01 T02190117  RH  052%=      5-min Rain = 0
KVP1 181647Z 20015KT 22/12 A2975 RMK A01 T02160116  RH  053%=      5-min Rain = 0
KVP1 181648Z 21014KT 22/12 A2975 RMK A01 T02160116  RH  053%=      5-min Rain = 0
KVP1 181649Z 20013KT 22/12 A2975 RMK A01 T02160117  RH  053%=      5-min Rain = 0
KVP1 181650Z 21013KT 22/12 A2975 RMK A01 T02170117  RH  053%=      5-min Rain = 0
KVP1 181651Z 21014KT 22/12 A2975 RMK A01 T02170117  RH  053%=      5-min Rain = 0
KVP1 181652Z 21010KT 22/12 A2975 RMK A01 T02170120  RH  054%=      5-min Rain = 0
KVP1 181653Z 20014G19KT 22/12 A2975 RMK A01 T02220120  RH  052%=      5-min Rain = 0
KVP1 181654Z 21017KT 22/12 A2975 RMK A01 T02230117  RH  051%=      5-min Rain = 0
KVP1 181655Z 22016KT 22/12 A2975 RMK A01 T02190115  RH  052%=      5-min Rain = 0
KVP1 181656Z 22015KT 22/12 A2975 RMK A01 T02160116  RH  053%=      5-min Rain = 0
KVP1 181657Z 21015KT 22/12 A2975 RMK A01 T02160116  RH  053%=      5-min Rain = 0
KVP1 181658Z 21013KT 22/12 A2975 RMK A01 T02160117  RH  053%=      5-min Rain = 0
KVP1 181659Z 21016KT 22/12 A2975 RMK A01 T02190118  RH  053%=      5-min Rain = 0
KVP1 181700Z 20019KT 22/12 A2975 RMK A01 T02190117  RH  052%=      5-min Rain = 0
KVP1 181701Z 21018KT 22/12 A2975 RMK A01 T02200116  RH  052%=      5-min Rain = 0
KVP1 181702Z 21017G22KT 22/12 A2975 RMK A01 T02200116  RH  052%=      5-min Rain = 0
KVP1 181703Z 22019KT 22/12 A2975 RMK A01 T02180116  RH  052%=      5-min Rain = 0
KVP1 181704Z 22017KT 22/12 A2975 RMK A01 T02170116  RH  053%=      5-min Rain = 0
KVP1 181705Z 22016KT 22/12 A2975 RMK A01 T02170117  RH  053%=      5-min Rain = 0
KVP1 181706Z 22014KT 22/12 A2975 RMK A01 T02170118  RH  053%=      5-min Rain = 0
KVP1 181707Z 22012KT 22/12 A2975 RMK A01 T02200119  RH  053%=      5-min Rain = 0
KVP1 181708Z 21016KT 22/12 A2975 RMK A01 T02220121  RH  052%=      5-min Rain = 0
KVP1 181709Z 22013KT 22/12 A2975 RMK A01 T02240119  RH  052%=      5-min Rain = 0
KVP1 181710Z 23013KT 22/12 A2975 RMK A01 T02240121  RH  052%=      5-min Rain = 0
KVP1 181711Z 22015KT 23/12 A2975 RMK A01 T02260120  RH  051%=      5-min Rain = 0
KVP1 181712Z 22015KT 23/12 A2975 RMK A01 T02270120  RH  051%=      5-min Rain = 0
KVP1 181713Z 22015KT 23/12 A2975 RMK A01 T02260119  RH  051%=      5-min Rain = 0
KVP1 181714Z 22010KT 23/12 A2975 RMK A01 T02250121  RH  052%=      5-min Rain = 0
KVP1 181715Z 20015KT 23/12 A2975 RMK A01 T02290122  RH  051%=      5-min Rain = 0
KVP1 181716Z 21015KT 23/12 A2975 RMK A01 T02310120  RH  050%=      5-min Rain = 0
KVP1 181717Z 21015KT 23/12 A2975 RMK A01 T02300121  RH  050%=      5-min Rain = 0
KVP1 181718Z 22013KT 23/12 A2975 RMK A01 T02300120  RH  050%=      5-min Rain = 0
KVP1 181719Z 21013KT 23/12 A2975 RMK A01 T02300122  RH  050%=      5-min Rain = 0
KVP1 181720Z 21012KT 23/12 A2975 RMK A01 T02320121  RH  050%=      5-min Rain = 0
KVP1 181721Z 21013KT 23/12 A2974 RMK A01 T02330122  RH  050%=      5-min Rain = 0
KVP1 181722Z 22013KT 24/12 A2974 RMK A01 T02350123  RH  050%=      5-min Rain = 0
KVP1 181723Z 22014KT 24/12 A2974 RMK A01 T02370123  RH  049%=      5-min Rain = 0
KVP1 181724Z 22014KT 24/12 A2974 RMK A01 T02360122  RH  049%=      5-min Rain = 0
KVP1 181725Z 23014KT 24/12 A2974 RMK A01 T02350123  RH  049%=      5-min Rain = 0
KVP1 181726Z 23013KT 24/13 A2974 RMK A01 T02360125  RH  050%=      5-min Rain = 0
KVP1 181727Z 22012KT 24/13 A2974 RMK A01 T02400126  RH  049%=      5-min Rain = 0
KVP1 181728Z 21012KT 24/13 A2974 RMK A01 T02420125  RH  048%=      5-min Rain = 0
KVP1 181729Z 21011KT 24/13 A2974 RMK A01 T02440126  RH  048%=      5-min Rain = 0
KVP1 181730Z 22015KT 25/13 A2974 RMK A01 T02470125  RH  046%=      5-min Rain = 0
KVP1 181731Z 22013G18KT 24/12 A2974 RMK A01 T02430124  RH  047%=      5-min Rain = 0
KVP1 181732Z 21015KT 24/12 A2974 RMK A01 T02420124  RH  048%=      5-min Rain = 0
KVP1 181733Z 21014KT 24/12 A2974 RMK A01 T02410121  RH  047%=      5-min Rain = 0
KVP1 181734Z 21013KT 24/12 A2974 RMK A01 T02400122  RH  048%=      5-min Rain = 0
KVP1 181735Z 20014KT 24/12 A2974 RMK A01 T02410123  RH  048%=      5-min Rain = 0
KVP1 181736Z 23012KT 24/13 A2974 RMK A01 T02430125  RH  048%=      5-min Rain = 0
KVP1 181737Z 22014KT 24/13 A2974 RMK A01 T02440125  RH  047%=      5-min Rain = 0
KVP1 181738Z 22015KT 24/12 A2974 RMK A01 T02430123  RH  047%=      5-min Rain = 0
KVP1 181739Z 21013KT 24/12 A2974 RMK A01 T02430124  RH  048%=      5-min Rain = 0
KVP1 181740Z 21014KT 24/12 A2973 RMK A01 T02430124  RH  047%=      5-min Rain = 0
KVP1 181741Z 21011KT 25/13 A2973 RMK A01 T02450125  RH  047%=      5-min Rain = 0
KVP1 181742Z 23016KT 25/13 A2974 RMK A01 T02460126  RH  047%=      5-min Rain = 0
KVP1 181743Z 24013KT 25/13 A2973 RMK A01 T02460125  RH  047%=      5-min Rain = 0
KVP1 181744Z 23015KT 25/13 A2973 RMK A01 T02460126  RH  047%=      5-min Rain = 0
KVP1 181745Z 22012KT 25/12 A2974 RMK A01 T02460124  RH  047%=      5-min Rain = 0
KVP1 181746Z 21015KT 24/12 A2973 RMK A01 T02440124  RH  047%=      5-min Rain = 0
KVP1 181747Z 21015KT 24/12 A2973 RMK A01 T02440124  RH  047%=      5-min Rain = 0
KVP1 181748Z 21014KT 25/12 A2973 RMK A01 T02450124  RH  047%=      5-min Rain = 0
KVP1 181749Z 22012KT 25/13 A2973 RMK A01 T02460126  RH  047%=      5-min Rain = 0
KVP1 181750Z 22016KT 25/13 A2973 RMK A01 T02490126  RH  046%=      5-min Rain = 0
KVP1 181751Z 22011KT 25/13 A2973 RMK A01 T02500126  RH  046%=      5-min Rain = 0
KVP1 181752Z 21015G20KT 25/13 A2973 RMK A01 T02490126  RH  046%=      5-min Rain = 0
KVP1 181753Z 21016KT 24/12 A2973 RMK A01 T02440121  RH  046%=      5-min Rain = 0
KVP1 181754Z 22015KT 24/12 A2973 RMK A01 T02380121  RH  048%=      5-min Rain = 0
KVP1 181755Z 22016KT 24/12 A2973 RMK A01 T02350121  RH  049%=      5-min Rain = 0
KVP1 181756Z 22014KT 24/12 A2973 RMK A01 T02350121  RH  049%=      5-min Rain = 0
KVP1 181757Z 23014KT 24/12 A2973 RMK A01 T02350122  RH  049%=      5-min Rain = 0
KVP1 181758Z 24016KT 24/13 A2973 RMK A01 T02400125  RH  049%=      5-min Rain = 0
KVP1 181759Z 24017KT 24/12 A2973 RMK A01 T02430122  RH  047%=      5-min Rain = 0
KVP1 181800Z 24016KT 24/12 A2973 RMK A01 T02390121  RH  048%=      5-min Rain = 0
KVP1 181801Z 24013KT 24/12 A2973 RMK A01 T02350120  RH  049%=      5-min Rain = 0
KVP1 181802Z 23012G17KT 23/12 A2973 RMK A01 T02330123  RH  050%=      5-min Rain = 0
KVP1 181803Z 23014KT 23/12 A2973 RMK A01 T02330123  RH  050%=      5-min Rain = 0
KVP1 181804Z 23014KT 23/12 A2973 RMK A01 T02330122  RH  050%=      5-min Rain = 0
KVP1 181805Z 23015KT 23/12 A2973 RMK A01 T02300120  RH  050%=      5-min Rain = 0
KVP1 181806Z 23014KT 23/12 A2973 RMK A01 T02280117  RH  049%=      5-min Rain = 0
KVP1 181807Z 23011KT 23/12 A2973 RMK A01 T02270117  RH  050%=      5-min Rain = 0
KVP1 181808Z 22013KT 23/12 A2973 RMK A01 T02320122  RH  050%=      5-min Rain = 0
KVP1 181809Z 21012KT 24/12 A2973 RMK A01 T02350123  RH  049%=      5-min Rain = 0
KVP1 181810Z 21013KT 24/12 A2973 RMK A01 T02380121  RH  048%=      5-min Rain = 0
KVP1 181811Z 22013KT 23/12 A2973 RMK A01 T02340121  RH  049%=      5-min Rain = 0
KVP1 181812Z 22010KT 23/12 A2973 RMK A01 T02300120  RH  050%=      5-min Rain = 0
KVP1 181813Z 22012KT 23/12 A2973 RMK A01 T02300121  RH  050%=      5-min Rain = 0
KVP1 181814Z 22011KT 23/13 A2973 RMK A01 T02330125  RH  051%=      5-min Rain = 0
KVP1 181815Z 22011KT 24/13 A2973 RMK A01 T02400128  RH  049%=      5-min Rain = 0
KVP1 181816Z 22017KT 25/13 A2973 RMK A01 T02450125  RH  047%=      5-min Rain = 0
KVP1 181817Z 23015KT 24/12 A2973 RMK A01 T02410122  RH  047%=      5-min Rain = 0
KVP1 181818Z 21012KT 24/12 A2973 RMK A01 T02350120  RH  048%=      5-min Rain = 0
KVP1 181819Z 20012KT 23/12 A2973 RMK A01 T02320118  RH  049%=      5-min Rain = 0
KVP1 181820Z 21010KT 23/12 A2973 RMK A01 T02290118  RH  049%=      5-min Rain = 0
KVP1 181821Z 21011KT 23/12 A2973 RMK A01 T02280119  RH  050%=      5-min Rain = 0
KVP1 181822Z 21009KT 23/12 A2972 RMK A01 T02290119  RH  050%=      5-min Rain = 0
KVP1 181823Z 21009KT 23/12 A2972 RMK A01 T02300122  RH  050%=      5-min Rain = 0
KVP1 181824Z 21011KT 23/12 A2972 RMK A01 T02330122  RH  050%=      5-min Rain = 0
KVP1 181825Z 20015KT 23/12 A2972 RMK A01 T02340121  RH  049%=      5-min Rain = 0
KVP1 181826Z 21015KT 23/12 A2972 RMK A01 T02340120  RH  049%=      5-min Rain = 0
KVP1 181827Z 21015KT 23/12 A2972 RMK A01 T02330120  RH  049%=      5-min Rain = 0
KVP1 181828Z 21013KT 23/12 A2972 RMK A01 T02340121  RH  049%=      5-min Rain = 0
KVP1 181829Z 23014KT 24/12 A2972 RMK A01 T02350122  RH  049%=      5-min Rain = 0
KVP1 181830Z 22013KT 24/12 A2972 RMK A01 T02390124  RH  048%=      5-min Rain = 0
KVP1 181831Z 22011KT 24/12 A2972 RMK A01 T02420123  RH  047%=      5-min Rain = 0
KVP1 181832Z 22009KT 24/13 A2972 RMK A01 T02430127  RH  048%=      5-min Rain = 0
KVP1 181833Z 21012KT 25/13 A2972 RMK A01 T02470125  RH  047%=      5-min Rain = 0
KVP1 181834Z 21012KT 25/13 A2972 RMK A01 T02470125  RH  046%=      5-min Rain = 0
KVP1 181835Z 23011KT 25/13 A2972 RMK A01 T02480126  RH  047%=      5-min Rain = 0
KVP1 181836Z 22008KT 25/13 A2972 RMK A01 T02480125  RH  046%=      5-min Rain = 0
KVP1 181837Z 21008KT 25/13 A2972 RMK A01 T02470127  RH  047%=      5-min Rain = 0
KVP1 181838Z 21014KT 25/13 A2971 RMK A01 T02470125  RH  047%=      5-min Rain = 0
KVP1 181839Z 23015KT 25/13 A2971 RMK A01 T02500126  RH  046%=      5-min Rain = 0
KVP1 181840Z 22011KT 25/12 A2971 RMK A01 T02520124  RH  045%=      5-min Rain = 0
KVP1 181841Z 23010KT 25/13 A2971 RMK A01 T02520125  RH  045%=      5-min Rain = 0
KVP1 181842Z 23013KT 25/13 A2971 RMK A01 T02520126  RH  045%=      5-min Rain = 0
KVP1 181843Z 23014G19KT 25/13 A2971 RMK A01 T02530126  RH  045%=      5-min Rain = 0
KVP1 181844Z 22015KT 26/13 A2971 RMK A01 T02560127  RH  045%=      5-min Rain = 0
KVP1 181845Z 22017KT 26/12 A2971 RMK A01 T02570124  RH  044%=      5-min Rain = 0
KVP1 181846Z 24014KT 26/12 A2971 RMK A01 T02560124  RH  044%=      5-min Rain = 0
KVP1 181847Z 23014KT 26/13 A2971 RMK A01 T02550126  RH  045%=      5-min Rain = 0
KVP1 181848Z 21016KT 26/13 A2971 RMK A01 T02560127  RH  045%=      5-min Rain = 0
KVP1 181849Z 21012KT 26/13 A2971 RMK A01 T02570125  RH  044%=      5-min Rain = 0
KVP1 181850Z 22017KT 26/13 A2971 RMK A01 T02560127  RH  044%=      5-min Rain = 0
KVP1 181851Z 21014G19KT 26/12 A2971 RMK A01 T02570124  RH  044%=      5-min Rain = 0
KVP1 181852Z 22018KT 26/12 A2971 RMK A01 T02560124  RH  044%=      5-min Rain = 0
KVP1 181853Z 23015G20KT 26/13 A2971 RMK A01 T02550125  RH  044%=      5-min Rain = 0
KVP1 181854Z 22011KT 26/13 A2971 RMK A01 T02560128  RH  045%=      5-min Rain = 0
KVP1 181855Z 22013KT 26/13 A2971 RMK A01 T02580126  RH  044%=      5-min Rain = 0
KVP1 181856Z 20014KT 26/12 A297 RMK A01 T02580124  RH  043%=      5-min Rain = 0
KVP1 181857Z 20014KT 26/12 A297 RMK A01 T02560124  RH  044%=      5-min Rain = 0
KVP1 181858Z 22015KT 26/13 A297 RMK A01 T02570126  RH  044%=      5-min Rain = 0
KVP1 181859Z 21016G22KT 26/13 A297 RMK A01 T02590128  RH  044%=      5-min Rain = 0
KVP1 181900Z 22014KT 26/13 A297 RMK A01 T02610126  RH  043%=      5-min Rain = 0
KVP1 181901Z 23013KT 26/13 A297 RMK A01 T02600127  RH  044%=      5-min Rain = 0
KVP1 181902Z 22015KT 26/13 A297 RMK A01 T02610129  RH  044%=      5-min Rain = 0
KVP1 181903Z 21017KT 26/13 A297 RMK A01 T02610125  RH  043%=      5-min Rain = 0
KVP1 181904Z 21015KT 26/12 A297 RMK A01 T02590124  RH  043%=      5-min Rain = 0
KVP1 181905Z 21015KT 26/13 A297 RMK A01 T02590126  RH  044%=      5-min Rain = 0
KVP1 181906Z 21013KT 26/13 A297 RMK A01 T02600127  RH  044%=      5-min Rain = 0
KVP1 181907Z 22013KT 26/13 A297 RMK A01 T02630128  RH  043%=      5-min Rain = 0
KVP1 181908Z 21013G18KT 26/13 A297 RMK A01 T02640126  RH  042%=      5-min Rain = 0
KVP1 181909Z 21015KT 26/12 A2969 RMK A01 T02640124  RH  042%=      5-min Rain = 0
KVP1 181910Z 21016KT 26/13 A2969 RMK A01 T02630125  RH  042%=      5-min Rain = 0
KVP1 181911Z 21015KT 26/12 A2969 RMK A01 T02620124  RH  042%=      5-min Rain = 0
KVP1 181912Z 22015KT 26/13 A2969 RMK A01 T02630125  RH  042%=      5-min Rain = 0
KVP1 181913Z 21014KT 26/12 A2969 RMK A01 T02630124  RH  042%=      5-min Rain = 0
KVP1 181914Z 23013KT 26/13 A2969 RMK A01 T02610125  RH  043%=      5-min Rain = 0
KVP1 181915Z 23010KT 26/13 A2969 RMK A01 T02610126  RH  043%=      5-min Rain = 0
KVP1 181916Z 23013G18KT 26/13 A2969 RMK A01 T02630127  RH  043%=      5-min Rain = 0
KVP1 181917Z 24013KT 26/13 A2969 RMK A01 T02640125  RH  042%=      5-min Rain = 0
KVP1 181918Z 24011KT 26/13 A2969 RMK A01 T02630127  RH  043%=      5-min Rain = 0
KVP1 181919Z 23012KT 26/13 A2969 RMK A01 T02640125  RH  042%=      5-min Rain = 0
KVP1 181920Z 22014KT 26/13 A2969 RMK A01 T02630125  RH  042%=      5-min Rain = 0
KVP1 181921Z 22014KT 27/13 A2969 RMK A01 T02650126  RH  042%=      5-min Rain = 0
KVP1 181922Z 22011KT 27/13 A2969 RMK A01 T02650126  RH  042%=      5-min Rain = 0
KVP1 181923Z 21015G21KT 27/13 A2969 RMK A01 T02660128  RH  042%=      5-min Rain = 0
KVP1 181924Z 22016KT 27/12 A2968 RMK A01 T02690124  RH  041%=      5-min Rain = 0
KVP1 181925Z 24016KT 27/13 A2968 RMK A01 T02680125  RH  041%=      5-min Rain = 0
KVP1 181926Z 23013KT 27/13 A2968 RMK A01 T02680125  RH  041%=      5-min Rain = 0
KVP1 181927Z 24012KT 27/13 A2968 RMK A01 T02660125  RH  042%=      5-min Rain = 0
KVP1 181928Z 25012KT 27/13 A2968 RMK A01 T02650126  RH  042%=      5-min Rain = 0
KVP1 181929Z 23012KT 26/12 A2968 RMK A01 T02610124  RH  043%=      5-min Rain = 0
KVP1 181930Z 23009KT 26/12 A2968 RMK A01 T02590124  RH  043%=      5-min Rain = 0
KVP1 181931Z 22009KT 26/13 A2968 RMK A01 T02620129  RH  044%=      5-min Rain = 0
KVP1 181932Z 23012KT 27/13 A2968 RMK A01 T02680131  RH  043%=      5-min Rain = 0
KVP1 181933Z 22017KT 27/13 A2968 RMK A01 T02730130  RH  041%=      5-min Rain = 0
KVP1 181934Z 22013KT 27/13 A2968 RMK A01 T02730126  RH  040%=      5-min Rain = 0
KVP1 181935Z 23013KT 27/13 A2968 RMK A01 T02710128  RH  041%=      5-min Rain = 0
KVP1 181936Z 22015KT 27/12 A2968 RMK A01 T02680124  RH  041%=      5-min Rain = 0
KVP1 181937Z 22012KT 26/12 A2968 RMK A01 T02620123  RH  042%=      5-min Rain = 0
KVP1 181938Z 22011KT 26/12 A2968 RMK A01 T02600124  RH  043%=      5-min Rain = 0
KVP1 181939Z 21012KT 26/13 A2968 RMK A01 T02590125  RH  043%=      5-min Rain = 0
KVP1 181940Z 22013KT 26/12 A2968 RMK A01 T02590124  RH  043%=      5-min Rain = 0
KVP1 181941Z 22011KT 26/13 A2968 RMK A01 T02590125  RH  044%=      5-min Rain = 0
KVP1 181942Z 22011KT 26/13 A2968 RMK A01 T02610127  RH  043%=      5-min Rain = 0
KVP1 181943Z 24012KT 27/13 A2967 RMK A01 T02650127  RH  042%=      5-min Rain = 0
KVP1 181944Z 24010KT 27/13 A2967 RMK A01 T02670127  RH  042%=      5-min Rain = 0
KVP1 181945Z 22010KT 27/13 A2967 RMK A01 T02670127  RH  042%=      5-min Rain = 0
KVP1 181946Z 23011KT 27/13 A2967 RMK A01 T02650126  RH  042%=      5-min Rain = 0
KVP1 181947Z 23013KT 26/13 A2967 RMK A01 T02620125  RH  042%=      5-min Rain = 0
KVP1 181948Z 22011KT 26/12 A2967 RMK A01 T02610124  RH  043%=      5-min Rain = 0
KVP1 181949Z 22009KT 26/13 A2967 RMK A01 T02610126  RH  043%=      5-min Rain = 0
KVP1 181950Z 22009KT 26/13 A2967 RMK A01 T02630126  RH  042%=      5-min Rain = 0
KVP1 181951Z 22010KT 26/13 A2967 RMK A01 T02640128  RH  043%=      5-min Rain = 0
KVP1 181952Z 22011KT 27/13 A2967 RMK A01 T02660128  RH  042%=      5-min Rain = 0
KVP1 181953Z 21010KT 27/13 A2967 RMK A01 T02690128  RH  042%=      5-min Rain = 0
KVP1 181954Z 21008KT 27/13 A2967 RMK A01 T02710127  RH  041%=      5-min Rain = 0
KVP1 181955Z 22010KT 27/13 A2967 RMK A01 T02720131  RH  042%=      5-min Rain = 0
KVP1 181956Z 23011KT 27/13 A2967 RMK A01 T02740129  RH  041%=      5-min Rain = 0
KVP1 181957Z 22010KT 28/13 A2967 RMK A01 T02750128  RH  040%=      5-min Rain = 0
KVP1 181958Z 23011KT 27/13 A2966 RMK A01 T02740128  RH  040%=      5-min Rain = 0
KVP1 181959Z 25013KT 27/13 A2966 RMK A01 T02740128  RH  040%=      5-min Rain = 0
KVP1 182000Z 24012KT 27/13 A2966 RMK A01 T02740127  RH  040%=      5-min Rain = 0
KVP1 182001Z 24013KT 27/13 A2966 RMK A01 T02740127  RH  040%=      5-min Rain = 0
KVP1 182002Z 24012KT 28/13 A2966 RMK A01 T02750126  RH  040%=      5-min Rain = 0
KVP1 182003Z 25008KT 28/13 A2966 RMK A01 T02750128  RH  040%=      5-min Rain = 0
KVP1 182004Z 26012KT 28/13 A2966 RMK A01 T02760128  RH  040%=      5-min Rain = 0
KVP1 182005Z 25010KT 28/13 A2966 RMK A01 T02760129  RH  040%=      5-min Rain = 0
KVP1 182006Z 22008G14KT 28/13 A2966 RMK A01 T02760132  RH  041%=      5-min Rain = 0
KVP1 182007Z 23012G17KT 28/13 A2966 RMK A01 T02800131  RH  040%=      5-min Rain = 0
KVP1 182008Z 23011KT 28/13 A2966 RMK A01 T02800128  RH  039%=      5-min Rain = 0
KVP1 182009Z 24011KT 27/13 A2966 RMK A01 T02740126  RH  040%=      5-min Rain = 0
KVP1 182010Z 24010KT 27/12 A2966 RMK A01 T02700124  RH  040%=      5-min Rain = 0
KVP1 182011Z 24012KT 27/12 A2966 RMK A01 T02670124  RH  041%=      5-min Rain = 0
KVP1 182012Z 23011KT 26/12 A2966 RMK A01 T02640121  RH  041%=      5-min Rain = 0
KVP1 182013Z 23010KT 26/12 A2966 RMK A01 T02620122  RH  042%=      5-min Rain = 0
KVP1 182014Z 22012KT 26/13 A2966 RMK A01 T02610125  RH  043%=      5-min Rain = 0
KVP1 182015Z 22013KT 26/12 A2966 RMK A01 T02610124  RH  043%=      5-min Rain = 0
KVP1 182016Z 23014KT 26/12 A2966 RMK A01 T02600123  RH  043%=      5-min Rain = 0
KVP1 182017Z 23013KT 26/12 A2966 RMK A01 T02590122  RH  043%=      5-min Rain = 0
KVP1 182018Z 23012KT 26/12 A2966 RMK A01 T02590123  RH  043%=      5-min Rain = 0
KVP1 182019Z 23011KT 26/12 A2966 RMK A01 T02590121  RH  042%=      5-min Rain = 0
KVP1 182020Z 23011KT 26/12 A2965 RMK A01 T02580122  RH  043%=      5-min Rain = 0
KVP1 182021Z 23011KT 26/12 A2965 RMK A01 T02580122  RH  043%=      5-min Rain = 0
KVP1 182022Z 22009KT 26/12 A2965 RMK A01 T02590124  RH  043%=      5-min Rain = 0
KVP1 182023Z 23010KT 26/12 A2965 RMK A01 T02610124  RH  043%=      5-min Rain = 0
KVP1 182024Z 23010KT 26/13 A2965 RMK A01 T02620125  RH  043%=      5-min Rain = 0
KVP1 182025Z 24009KT 26/13 A2965 RMK A01 T02620127  RH  043%=      5-min Rain = 0
KVP1 182026Z 23007KT 26/13 A2965 RMK A01 T02610128  RH  043%=      5-min Rain = 0
KVP1 182027Z 24007KT 26/13 A2965 RMK A01 T02620130  RH  044%=      5-min Rain = 0
KVP1 182028Z 24008KT 26/13 A2965 RMK A01 T02620129  RH  044%=      5-min Rain = 0
KVP1 182029Z 24009KT 26/13 A2965 RMK A01 T02620126  RH  043%=      5-min Rain = 0
KVP1 182030Z 24007KT 26/13 A2965 RMK A01 T02630130  RH  044%=      5-min Rain = 0
KVP1 182031Z 24010KT 27/13 A2964 RMK A01 T02700131  RH  042%=      5-min Rain = 0
KVP1 182032Z 24008KT 27/13 A2964 RMK A01 T02730128  RH  041%=      5-min Rain = 0
KVP1 182033Z 24008KT 28/13 A2964 RMK A01 T02750131  RH  041%=      5-min Rain = 0
KVP1 182034Z 24010KT 28/13 A2964 RMK A01 T02800130  RH  040%=      5-min Rain = 0
KVP1 182035Z 25008KT 28/13 A2964 RMK A01 T02820126  RH  038%=      5-min Rain = 0
KVP1 182036Z 24010KT 28/13 A2964 RMK A01 T02820128  RH  039%=      5-min Rain = 0
KVP1 182037Z 23011KT 28/12 A2964 RMK A01 T02820124  RH  038%=      5-min Rain = 0
KVP1 182038Z 24012G17KT 28/13 A2964 RMK A01 T02820126  RH  038%=      5-min Rain = 0
KVP1 182039Z 25010KT 28/12 A2964 RMK A01 T02820121  RH  037%=      5-min Rain = 0
KVP1 182040Z 25012KT 28/12 A2964 RMK A01 T02820118  RH  036%=      5-min Rain = 0
KVP1 182041Z 25012KT 28/12 A2964 RMK A01 T02830118  RH  036%=      5-min Rain = 0
KVP1 182042Z 23013KT 28/11 A2964 RMK A01 T02830112  RH  035%=      5-min Rain = 0
KVP1 182043Z 23012KT 28/11 A2964 RMK A01 T02820109  RH  034%=      5-min Rain = 0
KVP1 182044Z 23011KT 28/11 A2964 RMK A01 T02810112  RH  035%=      5-min Rain = 0
KVP1 182045Z 23013G18KT 28/11 A2964 RMK A01 T02820112  RH  035%=      5-min Rain = 0
KVP1 182046Z 23015KT 28/11 A2964 RMK A01 T02830112  RH  035%=      5-min Rain = 0
KVP1 182047Z 23016KT 28/11 A2964 RMK A01 T02820112  RH  035%=      5-min Rain = 0
KVP1 182048Z 24014KT 28/11 A2964 RMK A01 T02800112  RH  035%=      5-min Rain = 0
KVP1 182049Z 25015KT 28/11 A2964 RMK A01 T02800111  RH  035%=      5-min Rain = 0
KVP1 182050Z 24014KT 28/11 A2964 RMK A01 T02810114  RH  036%=      5-min Rain = 0
KVP1 182051Z 23014KT 28/11 A2964 RMK A01 T02830113  RH  035%=      5-min Rain = 0
KVP1 182052Z 23015KT 28/11 A2964 RMK A01 T02830113  RH  035%=      5-min Rain = 0
KVP1 182053Z 23014KT 28/11 A2964 RMK A01 T02820111  RH  034%=      5-min Rain = 0
KVP1 182054Z 23013G18KT 28/12 A2964 RMK A01 T02810115  RH  036%=      5-min Rain = 0
KVP1 182055Z 23015KT 28/11 A2964 RMK A01 T02830113  RH  035%=      5-min Rain = 0
KVP1 182056Z 23011KT 28/11 A2964 RMK A01 T02830114  RH  035%=      5-min Rain = 0
KVP1 182057Z 24012KT 28/11 A2964 RMK A01 T02840114  RH  035%=      5-min Rain = 0
KVP1 182058Z 24011KT 29/12 A2964 RMK A01 T02850115  RH  035%=      5-min Rain = 0
KVP1 182059Z 23015KT 29/12 A2964 RMK A01 T02850115  RH  035%=      5-min Rain = 0
KVP1 182100Z 24013KT 28/11 A2964 RMK A01 T02840110  RH  034%=      5-min Rain = 0
KVP1 182101Z 23010KT 28/11 A2964 RMK A01 T02790108  RH  034%=      5-min Rain = 0
KVP1 182102Z 23011KT 28/11 A2964 RMK A01 T02760110  RH  036%=      5-min Rain = 0
KVP1 182103Z 21012KT 28/11 A2964 RMK A01 T02760113  RH  036%=      5-min Rain = 0
KVP1 182104Z 22012KT 28/11 A2964 RMK A01 T02780111  RH  035%=      5-min Rain = 0
KVP1 182105Z 21011G16KT 28/11 A2964 RMK A01 T02800112  RH  035%=      5-min Rain = 0
KVP1 182106Z 21014KT 28/12 A2964 RMK A01 T02840116  RH  035%=      5-min Rain = 0
KVP1 182107Z 22012KT 29/12 A2964 RMK A01 T02890116  RH  034%=      5-min Rain = 0
KVP1 182108Z 22010KT 29/12 A2964 RMK A01 T02890115  RH  034%=      5-min Rain = 0
KVP1 182109Z 20010KT 29/12 A2964 RMK A01 T02900116  RH  034%=      5-min Rain = 0
KVP1 182110Z 17010KT 29/12 A2964 RMK A01 T02900119  RH  035%=      5-min Rain = 0
KVP1 182111Z 18009KT 28/13 A2964 RMK A01 T02810125  RH  038%=      5-min Rain = 0
KVP1 182112Z 17008KT 27/13 A2964 RMK A01 T02730125  RH  040%=      5-min Rain = 0
KVP1 182113Z 17009KT 27/13 A2964 RMK A01 T02690127  RH  041%=      5-min Rain = 0
KVP1 182114Z 19008KT 27/13 A2964 RMK A01 T02670128  RH  042%=      5-min Rain = 0
KVP1 182115Z 18007KT 26/13 A2964 RMK A01 T02640128  RH  043%=      5-min Rain = 0
KVP1 182116Z 18007KT 26/13 A2964 RMK A01 T02630128  RH  043%=      5-min Rain = 0
KVP1 182117Z 15009KT 26/13 A2964 RMK A01 T02630125  RH  042%=      5-min Rain = 0
KVP1 182118Z 17008KT 27/12 A2964 RMK A01 T02650121  RH  041%=      5-min Rain = 0
KVP1 182119Z 16008KT 27/12 A2964 RMK A01 T02670119  RH  040%=      5-min Rain = 0
KVP1 182120Z 16010KT 27/12 A2964 RMK A01 T02690123  RH  040%=      5-min Rain = 0
KVP1 182121Z 21007KT 27/13 A2964 RMK A01 T02740127  RH  040%=      5-min Rain = 0
KVP1 182122Z 19007KT 28/12 A2964 RMK A01 T02770122  RH  038%=      5-min Rain = 0
KVP1 182123Z 18008KT 28/12 A2964 RMK A01 T02770121  RH  038%=      5-min Rain = 0
KVP1 182124Z 16008KT 28/12 A2964 RMK A01 T02760119  RH  038%=      5-min Rain = 0
KVP1 182125Z 13005KT 28/12 A2964 RMK A01 T02750121  RH  038%=      5-min Rain = 0
KVP1 182126Z 12004KT 28/12 A2964 RMK A01 T02750121  RH  038%=      5-min Rain = 0
KVP1 182127Z 24007KT 28/12 A2964 RMK A01 T02770123  RH  038%=      5-min Rain = 0
KVP1 182128Z 23006KT 28/12 A2964 RMK A01 T02790123  RH  038%=      5-min Rain = 0
KVP1 182129Z 19003KT 28/12 A2964 RMK A01 T02790124  RH  038%=      5-min Rain = 0
KVP1 182130Z 19006KT 28/12 A2964 RMK A01 T02780123  RH  038%=      5-min Rain = 0
KVP1 182131Z 21009KT 28/12 A2964 RMK A01 T02760119  RH  038%=      5-min Rain = 0
KVP1 182132Z 26010KT 28/12 A2964 RMK A01 T02750117  RH  038%=      5-min Rain = 0
KVP1 182133Z 26010KT 27/11 A2964 RMK A01 T02740110  RH  036%=      5-min Rain = 0
KVP1 182134Z 24009KT 28/11 A2964 RMK A01 T02750113  RH  036%=      5-min Rain = 0
KVP1 182135Z 24010KT 28/11 A2964 RMK A01 T02780114  RH  036%=      5-min Rain = 0
KVP1 182136Z 25011KT 28/11 A2964 RMK A01 T02820111  RH  035%=      5-min Rain = 0
KVP1 182137Z 25010KT 28/11 A2964 RMK A01 T02820113  RH  035%=      5-min Rain = 0
KVP1 182138Z 24008KT 28/11 A2964 RMK A01 T02830114  RH  035%=      5-min Rain = 0
KVP1 182139Z 23011KT 29/12 A2964 RMK A01 T02850116  RH  035%=      5-min Rain = 0
KVP1 182140Z 23012KT 29/11 A2964 RMK A01 T02860110  RH  034%=      5-min Rain = 0
KVP1 182141Z 24014KT 29/11 A2964 RMK A01 T02850112  RH  034%=      5-min Rain = 0
KVP1 182142Z 24014KT 29/11 A2964 RMK A01 T02850108  RH  033%=      5-min Rain = 0
KVP1 182143Z 25012KT 28/11 A2964 RMK A01 T02840107  RH  033%=      5-min Rain = 0
KVP1 182144Z 26011KT 28/11 A2964 RMK A01 T02830106  RH  033%=      5-min Rain = 0
KVP1 182145Z 26014KT 28/11 A2964 RMK A01 T02830106  RH  033%=      5-min Rain = 0
KVP1 182146Z 27016KT 28/11 A2964 RMK A01 T02830106  RH  033%=      5-min Rain = 0
KVP1 182147Z 26014KT 28/11 A2964 RMK A01 T02820106  RH  033%=      5-min Rain = 0
KVP1 182148Z 26016KT 28/11 A2963 RMK A01 T02830107  RH  033%=      5-min Rain = 0
KVP1 182149Z 26015KT 28/11 A2964 RMK A01 T02820107  RH  033%=      5-min Rain = 0
KVP1 182150Z 25014KT 28/11 A2963 RMK A01 T02820108  RH  034%=      5-min Rain = 0
KVP1 182151Z 26015KT 28/11 A2964 RMK A01 T02820108  RH  034%=      5-min Rain = 0
KVP1 182152Z 26012KT 28/11 A2964 RMK A01 T02830110  RH  034%=      5-min Rain = 0
KVP1 182153Z 26013KT 28/11 A2964 RMK A01 T02830110  RH  034%=      5-min Rain = 0
KVP1 182154Z 27012KT 28/11 A2964 RMK A01 T02840109  RH  034%=      5-min Rain = 0
KVP1 182155Z 27012KT 28/11 A2964 RMK A01 T02840109  RH  034%=      5-min Rain = 0
KVP1 182156Z 26012KT 28/11 A2964 RMK A01 T02830111  RH  034%=      5-min Rain = 0
KVP1 182157Z 26014KT 28/11 A2964 RMK A01 T02830106  RH  033%=      5-min Rain = 0
KVP1 182158Z 25013KT 28/11 A2964 RMK A01 T02820106  RH  033%=      5-min Rain = 0
KVP1 182159Z 25014KT 28/11 A2964 RMK A01 T02820106  RH  034%=      5-min Rain = 0
KVP1 182200Z 25015KT 28/11 A2964 RMK A01 T02820105  RH  033%=      5-min Rain = 0
KVP1 182201Z 24014KT 28/10 A2964 RMK A01 T02810104  RH  033%=      5-min Rain = 0
KVP1 182202Z 24012KT 28/10 A2964 RMK A01 T02790103  RH  033%=      5-min Rain = 0
KVP1 182203Z 25010KT 28/11 A2964 RMK A01 T02770106  RH  034%=      5-min Rain = 0
KVP1 182204Z 25013KT 28/10 A2964 RMK A01 T02770104  RH  034%=      5-min Rain = 0
KVP1 182205Z 25015KT 28/10 A2964 RMK A01 T02780104  RH  034%=      5-min Rain = 0
KVP1 182206Z 25012KT 28/10 A2964 RMK A01 T02780103  RH  033%=      5-min Rain = 0
KVP1 182207Z 26011KT 28/10 A2964 RMK A01 T02790104  RH  034%=      5-min Rain = 0
KVP1 182208Z 25012KT 28/11 A2964 RMK A01 T02800106  RH  034%=      5-min Rain = 0
KVP1 182209Z 25011KT 28/10 A2964 RMK A01 T02810104  RH  033%=      5-min Rain = 0
KVP1 182210Z 25009KT 28/11 A2964 RMK A01 T02810106  RH  034%=      5-min Rain = 0
KVP1 182211Z 26011KT 28/11 A2964 RMK A01 T02800105  RH  034%=      5-min Rain = 0
KVP1 182212Z 25010KT 28/10 A2964 RMK A01 T02760102  RH  034%=      5-min Rain = 0
KVP1 182213Z 26010KT 27/10 A2964 RMK A01 T02720102  RH  034%=      5-min Rain = 0
KVP1 182214Z 26014KT 27/10 A2964 RMK A01 T02690102  RH  035%=      5-min Rain = 0
KVP1 182215Z 24011KT 27/10 A2964 RMK A01 T02670102  RH  035%=      5-min Rain = 0
KVP1 182216Z 24011KT 27/10 A2964 RMK A01 T02660104  RH  036%=      5-min Rain = 0
KVP1 182217Z 24009KT 27/11 A2964 RMK A01 T02660105  RH  036%=      5-min Rain = 0
KVP1 182218Z 24009KT 27/11 A2964 RMK A01 T02680107  RH  036%=      5-min Rain = 0
KVP1 182219Z 25009KT 27/11 A2964 RMK A01 T02680106  RH  036%=      5-min Rain = 0
KVP1 182220Z 25008KT 27/11 A2964 RMK A01 T02700106  RH  036%=      5-min Rain = 0
KVP1 182221Z 24010KT 27/11 A2964 RMK A01 T02730108  RH  036%=      5-min Rain = 0
KVP1 182222Z 25010KT 28/11 A2964 RMK A01 T02760106  RH  035%=      5-min Rain = 0
KVP1 182223Z 25010KT 28/11 A2964 RMK A01 T02780105  RH  034%=      5-min Rain = 0
KVP1 182224Z 25010KT 28/10 A2964 RMK A01 T02790104  RH  034%=      5-min Rain = 0
KVP1 182225Z 25010KT 28/10 A2964 RMK A01 T02800103  RH  033%=      5-min Rain = 0
KVP1 182226Z 24009KT 28/10 A2964 RMK A01 T02790103  RH  033%=      5-min Rain = 0
KVP1 182227Z 24010KT 28/10 A2964 RMK A01 T02790103  RH  033%=      5-min Rain = 0
KVP1 182228Z 24010KT 28/10 A2964 RMK A01 T02800104  RH  033%=      5-min Rain = 0
KVP1 182229Z 24013KT 28/10 A2963 RMK A01 T02810103  RH  033%=      5-min Rain = 0
KVP1 182230Z 25012KT 28/10 A2964 RMK A01 T02800100  RH  032%=      5-min Rain = 0
KVP1 182231Z 25011KT 28/10 A2964 RMK A01 T02790100  RH  033%=      5-min Rain = 0
KVP1 182232Z 25010KT 28/10 A2964 RMK A01 T02790099  RH  032%=      5-min Rain = 0
KVP1 182233Z 25009KT 28/10 A2964 RMK A01 T02780101  RH  033%=      5-min Rain = 0
KVP1 182234Z 24011KT 28/10 A2964 RMK A01 T02790102  RH  033%=      5-min Rain = 0
KVP1 182235Z 24009KT 28/10 A2964 RMK A01 T02790101  RH  033%=      5-min Rain = 0
KVP1 182236Z 25011KT 28/10 A2963 RMK A01 T02790104  RH  034%=      5-min Rain = 0
KVP1 182237Z 25010KT 28/10 A2963 RMK A01 T02790100  RH  033%=      5-min Rain = 0
KVP1 182238Z 25011KT 28/10 A2963 RMK A01 T02790099  RH  033%=      5-min Rain = 0
KVP1 182239Z 26008KT 28/10 A2963 RMK A01 T02780100  RH  033%=      5-min Rain = 0
KVP1 182240Z 25008KT 28/10 A2963 RMK A01 T02780103  RH  033%=      5-min Rain = 0
KVP1 182241Z 25010KT 28/10 A2963 RMK A01 T02780103  RH  033%=      5-min Rain = 0
KVP1 182242Z 25012KT 28/10 A2963 RMK A01 T02790101  RH  033%=      5-min Rain = 0
KVP1 182243Z 24011KT 28/10 A2963 RMK A01 T02780101  RH  033%=      5-min Rain = 0
KVP1 182244Z 24013KT 28/10 A2963 RMK A01 T02760101  RH  034%=      5-min Rain = 0
KVP1 182245Z 24013KT 27/10 A2963 RMK A01 T02740099  RH  034%=      5-min Rain = 0
KVP1 182246Z 24013KT 27/10 A2963 RMK A01 T02740097  RH  033%=      5-min Rain = 0
KVP1 182247Z 24013KT 27/10 A2963 RMK A01 T02730097  RH  033%=      5-min Rain = 0
KVP1 182248Z 24010KT 27/10 A2963 RMK A01 T02730098  RH  033%=      5-min Rain = 0
KVP1 182249Z 24009KT 27/10 A2963 RMK A01 T02740101  RH  034%=      5-min Rain = 0
KVP1 182250Z 25011KT 28/10 A2963 RMK A01 T02750100  RH  033%=      5-min Rain = 0
KVP1 182251Z 24009KT 28/10 A2963 RMK A01 T02760099  RH  033%=      5-min Rain = 0
KVP1 182252Z 25010KT 28/10 A2963 RMK A01 T02760099  RH  033%=      5-min Rain = 0
KVP1 182253Z 25010KT 28/10 A2963 RMK A01 T02770101  RH  033%=      5-min Rain = 0
KVP1 182254Z 24010KT 28/10 A2963 RMK A01 T02770099  RH  033%=      5-min Rain = 0
KVP1 182255Z 26011G16KT 28/10 A2963 RMK A01 T02770101  RH  033%=      5-min Rain = 0
KVP1 182256Z 25014KT 28/10 A2963 RMK A01 T02770096  RH  032%=      5-min Rain = 0
KVP1 182257Z 25013KT 28/10 A2963 RMK A01 T02770096  RH  032%=      5-min Rain = 0
KVP1 182258Z 25013KT 28/10 A2963 RMK A01 T02760096  RH  032%=      5-min Rain = 0
KVP1 182259Z 24012KT 28/10 A2963 RMK A01 T02760096  RH  032%=      5-min Rain = 0
KVP1 182300Z 24013KT 28/10 A2963 RMK A01 T02760098  RH  033%=      5-min Rain = 0
KVP1 182301Z 24012KT 28/10 A2963 RMK A01 T02750095  RH  032%=      5-min Rain = 0
KVP1 182302Z 24014KT 28/10 A2963 RMK A01 T02750096  RH  033%=      5-min Rain = 0
KVP1 182303Z 24014KT 27/10 A2963 RMK A01 T02740096  RH  033%=      5-min Rain = 0
KVP1 182304Z 24015KT 27/09 A2963 RMK A01 T02740093  RH  032%=      5-min Rain = 0
KVP1 182305Z 24012KT 27/09 A2963 RMK A01 T02730093  RH  032%=      5-min Rain = 0
KVP1 182306Z 24014KT 27/09 A2963 RMK A01 T02730094  RH  032%=      5-min Rain = 0
KVP1 182307Z 25011KT 27/10 A2963 RMK A01 T02730095  RH  033%=      5-min Rain = 0
KVP1 182308Z 24011KT 27/10 A2963 RMK A01 T02720095  RH  033%=      5-min Rain = 0
KVP1 182309Z 24011KT 27/10 A2964 RMK A01 T02720095  RH  033%=      5-min Rain = 0
KVP1 182310Z 25011KT 27/10 A2964 RMK A01 T02720096  RH  033%=      5-min Rain = 0
KVP1 182311Z 25011KT 27/09 A2964 RMK A01 T02710094  RH  033%=      5-min Rain = 0
KVP1 182312Z 25012KT 27/09 A2964 RMK A01 T02710092  RH  032%=      5-min Rain = 0
KVP1 182313Z 25010KT 27/09 A2964 RMK A01 T02710094  RH  033%=      5-min Rain = 0
KVP1 182314Z 25013KT 27/09 A2964 RMK A01 T02700094  RH  033%=      5-min Rain = 0
KVP1 182315Z 24014KT 27/09 A2964 RMK A01 T02700093  RH  033%=      5-min Rain = 0
KVP1 182316Z 25012KT 27/09 A2964 RMK A01 T02700092  RH  033%=      5-min Rain = 0
KVP1 182317Z 25012KT 27/09 A2964 RMK A01 T02690094  RH  033%=      5-min Rain = 0
KVP1 182318Z 25011KT 27/09 A2964 RMK A01 T02690094  RH  033%=      5-min Rain = 0
KVP1 182319Z 25011KT 27/09 A2964 RMK A01 T02680093  RH  033%=      5-min Rain = 0
KVP1 182320Z 25010KT 27/09 A2964 RMK A01 T02680092  RH  033%=      5-min Rain = 0
KVP1 182321Z 25010KT 27/09 A2964 RMK A01 T02670094  RH  034%=      5-min Rain = 0
KVP1 182322Z 24011KT 27/10 A2964 RMK A01 T02670095  RH  034%=      5-min Rain = 0
KVP1 182323Z 24014KT 27/09 A2964 RMK A01 T02660093  RH  034%=      5-min Rain = 0
KVP1 182324Z 25012KT 27/09 A2964 RMK A01 T02650092  RH  034%=      5-min Rain = 0
KVP1 182325Z 25011KT 27/09 A2964 RMK A01 T02650094  RH  034%=      5-min Rain = 0
KVP1 182326Z 25011KT 26/09 A2964 RMK A01 T02630094  RH  034%=      5-min Rain = 0
KVP1 182327Z 24011KT 26/09 A2964 RMK A01 T02620093  RH  034%=      5-min Rain = 0
KVP1 182328Z 24012KT 26/09 A2964 RMK A01 T02620093  RH  034%=      5-min Rain = 0
KVP1 182329Z 25010KT 26/09 A2964 RMK A01 T02610093  RH  035%=      5-min Rain = 0
KVP1 182330Z 24010KT 26/09 A2964 RMK A01 T02600094  RH  035%=      5-min Rain = 0
KVP1 182331Z 25011KT 26/09 A2964 RMK A01 T02590094  RH  035%=      5-min Rain = 0
KVP1 182332Z 25011KT 26/09 A2964 RMK A01 T02590094  RH  035%=      5-min Rain = 0
KVP1 182333Z 25010KT 26/09 A2964 RMK A01 T02580093  RH  035%=      5-min Rain = 0
KVP1 182334Z 25011KT 26/09 A2964 RMK A01 T02580093  RH  035%=      5-min Rain = 0
KVP1 182335Z 25011KT 26/09 A2964 RMK A01 T02570093  RH  036%=      5-min Rain = 0
KVP1 182336Z 25011KT 26/09 A2964 RMK A01 T02560093  RH  036%=      5-min Rain = 0
KVP1 182337Z 25011KT 26/09 A2964 RMK A01 T02550092  RH  036%=      5-min Rain = 0
KVP1 182338Z 26010KT 25/09 A2964 RMK A01 T02540092  RH  036%=      5-min Rain = 0
KVP1 182339Z 26012KT 25/09 A2964 RMK A01 T02520091  RH  036%=      5-min Rain = 0
KVP1 182340Z 26010KT 25/09 A2964 RMK A01 T02510091  RH  036%=      5-min Rain = 0
KVP1 182341Z 26011KT 25/09 A2964 RMK A01 T02480089  RH  036%=      5-min Rain = 0
KVP1 182342Z 26012KT 25/09 A2964 RMK A01 T02470086  RH  036%=      5-min Rain = 0
KVP1 182343Z 26010KT 25/09 A2964 RMK A01 T02460085  RH  036%=      5-min Rain = 0
KVP1 182344Z 25010KT 25/09 A2964 RMK A01 T02450085  RH  036%=      5-min Rain = 0
KVP1 182345Z 26010KT 24/08 A2964 RMK A01 T02430084  RH  036%=      5-min Rain = 0
KVP1 182346Z 25011KT 24/08 A2964 RMK A01 T02420082  RH  036%=      5-min Rain = 0
KVP1 182347Z 26009KT 24/08 A2964 RMK A01 T02430082  RH  036%=      5-min Rain = 0
KVP1 182348Z 25009KT 24/08 A2964 RMK A01 T02410082  RH  036%=      5-min Rain = 0
KVP1 182349Z 26010KT 24/08 A2964 RMK A01 T02390082  RH  036%=      5-min Rain = 0
KVP1 182350Z 26010KT 24/08 A2964 RMK A01 T02380081  RH  037%=      5-min Rain = 0
KVP1 182351Z 26010KT 24/08 A2964 RMK A01 T02370080  RH  037%=      5-min Rain = 0
KVP1 182352Z 26010KT 24/08 A2964 RMK A01 T02370080  RH  037%=      5-min Rain = 0
KVP1 182353Z 26010KT 24/08 A2964 RMK A01 T02350080  RH  037%=      5-min Rain = 0
KVP1 182354Z 25010KT 23/08 A2964 RMK A01 T02340080  RH  037%=      5-min Rain = 0
KVP1 182355Z 25009KT 23/08 A2965 RMK A01 T02330080  RH  037%=      5-min Rain = 0
KVP1 182356Z 25010KT 23/08 A2965 RMK A01 T02310080  RH  038%=      5-min Rain = 0
KVP1 182357Z 25010KT 23/08 A2965 RMK A01 T02310080  RH  038%=      5-min Rain = 0
KVP1 182358Z 26010KT 23/08 A2965 RMK A01 T02300080  RH  038%=      5-min Rain = 0
KVP1 182359Z 25009KT 23/08 A2965 RMK A01 T02280080  RH  039%=      5-min Rain = 0
KVP1 190000Z 25009KT 23/08 A2965 RMK A01 T02270079  RH  039%=      5-min Rain = 0
KVP1 190001Z 26009KT 23/08 A2965 RMK A01 T02260080  RH  039%=      5-min Rain = 0
KVP1 190002Z 26009KT 22/08 A2965 RMK A01 T02240080  RH  039%=      5-min Rain = 0
KVP1 190003Z 26009KT 22/08 A2965 RMK A01 T02230079  RH  040%=      5-min Rain = 0
KVP1 190004Z 26009KT 22/08 A2965 RMK A01 T02220080  RH  040%=      5-min Rain = 0
KVP1 190005Z 26009KT 22/08 A2965 RMK A01 T02200079  RH  040%=      5-min Rain = 0
KVP1 190006Z 26009KT 22/08 A2965 RMK A01 T02190080  RH  041%=      5-min Rain = 0
KVP1 190007Z 26010KT 22/08 A2965 RMK A01 T02180079  RH  041%=      5-min Rain = 0
KVP1 190008Z 26011KT 22/08 A2965 RMK A01 T02180079  RH  041%=      5-min Rain = 0
KVP1 190009Z 26011G16KT 22/08 A2965 RMK A01 T02180078  RH  041%=      5-min Rain = 0
KVP1 190010Z 26011G16KT 22/08 A2965 RMK A01 T02200078  RH  040%=      5-min Rain = 0
KVP1 190011Z 27011KT 22/08 A2965 RMK A01 T02220078  RH  039%=      5-min Rain = 0
KVP1 190012Z 27011KT 22/08 A2965 RMK A01 T02230078  RH  039%=      5-min Rain = 0
KVP1 190013Z 27011KT 22/08 A2965 RMK A01 T02230077  RH  039%=      5-min Rain = 0
KVP1 190014Z 27011KT 22/08 A2965 RMK A01 T02240077  RH  039%=      5-min Rain = 0
KVP1 190015Z 27011KT 22/08 A2965 RMK A01 T02240077  RH  039%=      5-min Rain = 0
KVP1 190016Z 27011KT 22/08 A2965 RMK A01 T02240077  RH  039%=      5-min Rain = 0
KVP1 190017Z 27011KT 22/08 A2965 RMK A01 T02240077  RH  039%=      5-min Rain = 0
KVP1 190018Z 27011KT 22/08 A2965 RMK A01 T02240077  RH  039%=      5-min Rain = 0
KVP1 190019Z 27010KT 22/08 A2965 RMK A01 T02230078  RH  039%=      5-min Rain = 0
KVP1 190020Z 27010KT 22/08 A2965 RMK A01 T02220078  RH  040%=      5-min Rain = 0
KVP1 190021Z 27010KT 22/08 A2965 RMK A01 T02210078  RH  040%=      5-min Rain = 0
KVP1 190022Z 27010KT 22/08 A2965 RMK A01 T02200079  RH  040%=      5-min Rain = 0
KVP1 190023Z 27010KT 22/08 A2965 RMK A01 T02190078  RH  040%=      5-min Rain = 0
KVP1 190024Z 27011KT 22/08 A2965 RMK A01 T02190079  RH  040%=      5-min Rain = 0
KVP1 190025Z 27010KT 22/08 A2965 RMK A01 T02190079  RH  040%=      5-min Rain = 0
KVP1 190026Z 27010KT 22/08 A2965 RMK A01 T02180080  RH  041%=      5-min Rain = 0
KVP1 190027Z 27009KT 22/08 A2965 RMK A01 T02160080  RH  041%=      5-min Rain = 0
KVP1 190028Z 27010KT 22/08 A2965 RMK A01 T02150080  RH  042%=      5-min Rain = 0
KVP1 190029Z 27009KT 21/08 A2965 RMK A01 T02140080  RH  042%=      5-min Rain = 0
KVP1 190030Z 27009KT 21/08 A2965 RMK A01 T02130080  RH  042%=      5-min Rain = 0
KVP1 190031Z 27009KT 21/08 A2965 RMK A01 T02130081  RH  043%=      5-min Rain = 0
KVP1 190032Z 27009KT 21/08 A2965 RMK A01 T02120080  RH  043%=      5-min Rain = 0
KVP1 190033Z 27009KT 21/08 A2965 RMK A01 T02120080  RH  043%=      5-min Rain = 0
KVP1 190034Z 27008KT 21/08 A2965 RMK A01 T02120080  RH  043%=      5-min Rain = 0
KVP1 190035Z 26008KT 21/08 A2965 RMK A01 T02120081  RH  043%=      5-min Rain = 0
KVP1 190036Z 26008KT 21/08 A2965 RMK A01 T02100081  RH  043%=      5-min Rain = 0
KVP1 190037Z 26008KT 21/08 A2965 RMK A01 T02100081  RH  043%=      5-min Rain = 0
KVP1 190038Z 26008KT 21/08 A2965 RMK A01 T02090081  RH  044%=      5-min Rain = 0
KVP1 190039Z 26008KT 21/08 A2965 RMK A01 T02070081  RH  044%=      5-min Rain = 0
KVP1 190040Z 26008KT 21/08 A2965 RMK A01 T02060081  RH  045%=      5-min Rain = 0
KVP1 190041Z 26008KT 21/08 A2965 RMK A01 T02050081  RH  045%=      5-min Rain = 0
KVP1 190042Z 26008KT 20/08 A2965 RMK A01 T02030081  RH  045%=      5-min Rain = 0
KVP1 190043Z 26008KT 20/08 A2965 RMK A01 T02030081  RH  046%=      5-min Rain = 0
KVP1 190044Z 26007KT 20/08 A2965 RMK A01 T02020081  RH  046%=      5-min Rain = 0
KVP1 190045Z 26007KT 20/08 A2965 RMK A01 T02020081  RH  046%=      5-min Rain = 0
KVP1 190046Z 25007KT 20/08 A2965 RMK A01 T02010081  RH  046%=      5-min Rain = 0
KVP1 190047Z 25007KT 20/08 A2965 RMK A01 T02000082  RH  046%=      5-min Rain = 0
KVP1 190048Z 25007KT 20/08 A2966 RMK A01 T01990082  RH  047%=      5-min Rain = 0
KVP1 190049Z 25007KT 20/08 A2966 RMK A01 T01980082  RH  047%=      5-min Rain = 0
KVP1 190050Z 25008KT 20/08 A2966 RMK A01 T01970084  RH  048%=      5-min Rain = 0
KVP1 190051Z 25008KT 20/09 A2966 RMK A01 T01960085  RH  049%=      5-min Rain = 0
KVP1 190052Z 25009KT 20/09 A2967 RMK A01 T01950086  RH  049%=      5-min Rain = 0
KVP1 190053Z 27015G20KT 20/08 A2967 RMK A01 T01960083  RH  048%=      5-min Rain = 0
KVP1 190054Z 26017KT 20/08 A2967 RMK A01 T02040077  RH  044%=      5-min Rain = 0
KVP1 190055Z 26015KT 21/08 A2967 RMK A01 T02120077  RH  042%=      5-min Rain = 0
KVP1 190056Z 26013G18KT 22/08 A2967 RMK A01 T02150080  RH  042%=      5-min Rain = 0
KVP1 190057Z 26014KT 22/08 A2967 RMK A01 T02150082  RH  042%=      5-min Rain = 0
KVP1 190058Z 26015KT 22/08 A2967 RMK A01 T02150082  RH  042%=      5-min Rain = 0
KVP1 190059Z 26016KT 22/08 A2967 RMK A01 T02150081  RH  042%=      5-min Rain = 0
KVP1 190100Z 26015KT 22/08 A2967 RMK A01 T02160080  RH  042%=      5-min Rain = 0
KVP1 190101Z 27018G23KT 22/08 A2967 RMK A01 T02170077  RH  040%=      5-min Rain = 0
KVP1 190102Z 26022G28KT 22/08 A2967 RMK A01 T02180075  RH  040%=      5-min Rain = 0
KVP1 190103Z 27023KT 22/07 A2967 RMK A01 T02190072  RH  039%=      5-min Rain = 0
KVP1 190104Z 27021G26KT 22/07 A2967 RMK A01 T02200071  RH  038%=      5-min Rain = 0
KVP1 190105Z 27022KT 22/07 A2967 RMK A01 T02200072  RH  039%=      5-min Rain = 0
KVP1 190106Z 27022KT 22/07 A2967 RMK A01 T02190072  RH  039%=      5-min Rain = 0
KVP1 190107Z 27016G22KT 22/07 A2967 RMK A01 T02180074  RH  040%=      5-min Rain = 0
KVP1 190108Z 27016KT 22/08 A2967 RMK A01 T02160076  RH  040%=      5-min Rain = 0
KVP1 190109Z 28019G28KT 21/08 A2968 RMK A01 T02140075  RH  041%=      5-min Rain = 0
KVP1 190110Z 28023G28KT 22/07 A2968 RMK A01 T02150071  RH  039%=      5-min Rain = 0
KVP1 190111Z 29022KT 22/07 A2968 RMK A01 T02160073  RH  040%=      5-min Rain = 0
KVP1 190112Z 29021KT 22/08 A2968 RMK A01 T02150075  RH  040%=      5-min Rain = 0
KVP1 190113Z 29019KT 21/08 A2967 RMK A01 T02140076  RH  041%=      5-min Rain = 0
KVP1 190114Z 29017G22KT 21/08 A2967 RMK A01 T02130076  RH  041%=      5-min Rain = 0
KVP1 190115Z 29018G23KT 21/08 A2968 RMK A01 T02130076  RH  041%=      5-min Rain = 0
KVP1 190116Z 28017KT 21/07 A2968 RMK A01 T02130074  RH  041%=      5-min Rain = 0
KVP1 190117Z 28019G24KT 21/07 A2968 RMK A01 T02140068  RH  039%=      5-min Rain = 0
KVP1 190118Z 29017KT 22/07 A2968 RMK A01 T02160066  RH  038%=      5-min Rain = 0
KVP1 190119Z 30022KT 22/07 A2968 RMK A01 T02180066  RH  037%=      5-min Rain = 0
KVP1 190120Z 30020G27KT 22/07 A2968 RMK A01 T02180066  RH  037%=      5-min Rain = 0
KVP1 190121Z 28023KT 22/07 A2967 RMK A01 T02190065  RH  037%=      5-min Rain = 0
KVP1 190122Z 28024G29KT 22/06 A2967 RMK A01 T02210060  RH  035%=      5-min Rain = 0
KVP1 190123Z 29022G29KT 22/06 A2967 RMK A01 T02240063  RH  035%=      5-min Rain = 0
KVP1 190124Z 29022G28KT 22/06 A2968 RMK A01 T02240062  RH  035%=      5-min Rain = 0
KVP1 190125Z 29026KT 22/06 A2968 RMK A01 T02240062  RH  035%=      5-min Rain = 0
KVP1 190126Z 30024KT 22/07 A2968 RMK A01 T02230066  RH  036%=      5-min Rain = 0
KVP1 190127Z 30020G25KT 22/07 A2968 RMK A01 T02210066  RH  037%=      5-min Rain = 0
KVP1 190128Z 30018KT 22/07 A2968 RMK A01 T02190069  RH  038%=      5-min Rain = 0
KVP1 190129Z 30016KT 22/07 A2968 RMK A01 T02160071  RH  039%=      5-min Rain = 0
KVP1 190130Z 30017G23KT 21/07 A2969 RMK A01 T02130074  RH  041%=      5-min Rain = 0
KVP1 190131Z 30018KT 21/07 A2969 RMK A01 T02110073  RH  041%=      5-min Rain = 0
KVP1 190132Z 30016KT 21/07 A2969 RMK A01 T02110073  RH  041%=      5-min Rain = 0
KVP1 190133Z 30016KT 21/07 A2969 RMK A01 T02110074  RH  041%=      5-min Rain = 0
KVP1 190134Z 31017KT 21/07 A297 RMK A01 T02100072  RH  041%=      5-min Rain = 0
KVP1 190135Z 30014KT 21/07 A297 RMK A01 T02100071  RH  040%=      5-min Rain = 0
KVP1 190136Z 29013KT 21/07 A2971 RMK A01 T02100072  RH  041%=      5-min Rain = 0
KVP1 190137Z 27012KT 21/07 A2971 RMK A01 T02100074  RH  041%=      5-min Rain = 0
KVP1 190138Z 24014KT 21/08 A2972 RMK A01 T02090075  RH  042%=      5-min Rain = 0
KVP1 190139Z 24016KT 21/08 A2973 RMK A01 T02080076  RH  043%=      5-min Rain = 0
KVP1 190140Z 23016G23KT 21/08 A2973 RMK A01 T02080075  RH  042%=      5-min Rain = 0
KVP1 190141Z 23025G30KT 21/08 A2973 RMK A01 T02090082  RH  044%=      5-min Rain = 0
KVP1 190142Z 23024KT 21/09 A2973 RMK A01 T02080087  RH  046%=      5-min Rain = 0
KVP1 190143Z 23020KT 21/09 A2973 RMK A01 T02060089  RH  047%=      5-min Rain = 0
KVP1 190144Z 24021KT 20/09 A2973 RMK A01 T02040092  RH  049%=      5-min Rain = 0
KVP1 190145Z 24019KT 20/09 A2973 RMK A01 T02010094  RH  050%=      5-min Rain = 0
KVP1 190146Z 24020G25KT 20/10 A2973 RMK A01 T01990095  RH  051%=      5-min Rain = 0
KVP1 190147Z 23023G29KT 20/10 A2973 RMK A01 T01980096  RH  051%=      5-min Rain = 0
KVP1 190148Z 24022G27KT 20/10 A2973 RMK A01 T01980098  RH  052%=      5-min Rain = 0
KVP1 190149Z 24025G31KT 20/10 A2974 RMK A01 T01950104  RH  056%=      5-min Rain = 0
KVP1 190150Z 24023KT 19/11 A2974 RMK A01 T01910109  RH  059%=      5-min Rain = 0
KVP1 190151Z 24025KT 19/11 A2974 RMK A01 T01870111  RH  061%=      5-min Rain = 0
KVP1 190152Z 24028KT 19/11 A2974 RMK A01 T01850110  RH  062%=      5-min Rain = 0
KVP1 190153Z 24026G31KT 18/11 A2974 RMK A01 T01820112  RH  063%=      5-min Rain = 0
KVP1 190154Z 24025KT 18/11 A2974 RMK A01 T01790113  RH  065%=      5-min Rain = 0
KVP1 190155Z 25023G28KT 18/11 A2975 RMK A01 T01760113  RH  067%=      5-min Rain = 0
KVP1 190156Z 25024G30KT 17/11 A2974 RMK A01 T01740114  RH  068%=      5-min Rain = 0
KVP1 190157Z 26021G27KT 17/11 A2974 RMK A01 T01730111  RH  067%=      5-min Rain = 0
KVP1 190158Z 26022G28KT 17/11 A2975 RMK A01 T01730111  RH  067%=      5-min Rain = 0
KVP1 190159Z 27020KT 17/11 A2975 RMK A01 T01710114  RH  069%=      5-min Rain = 0
KVP1 190200Z 26019KT 17/11 A2975 RMK A01 T01700114  RH  070%=      5-min Rain = 0
KVP1 190201Z 27015KT 17/12 A2975 RMK A01 T01680116  RH  071%=      5-min Rain = 0
KVP1 190202Z 27016KT 17/11 A2974 RMK A01 T01670114  RH  071%=      5-min Rain = 0
KVP1 190203Z 28016KT 17/11 A2974 RMK A01 T01670113  RH  070%=      5-min Rain = 0
KVP1 190204Z 28015KT 17/11 A2974 RMK A01 T01680114  RH  070%=      5-min Rain = 0
KVP1 190205Z 29013KT 17/12 A2974 RMK A01 T01670115  RH  071%=      5-min Rain = 0.01
KVP1 190206Z 29013KT 17/12 A2974 RMK A01 T01650116  RH  073%=      5-min Rain = 0
KVP1 190207Z 29012KT 16/12 A2974 RMK A01 T01640116  RH  073%=      5-min Rain = 0
KVP1 190208Z 28012KT 16/12 A2974 RMK A01 T01640115  RH  073%=      5-min Rain = 0
KVP1 190209Z 29012KT 16/12 A2974 RMK A01 T01630116  RH  074%=      5-min Rain = 0
KVP1 190210Z 30011KT 16/12 A2974 RMK A01 T01630116  RH  074%=      5-min Rain = 0
KVP1 190211Z 31010KT 16/12 A2973 RMK A01 T01620115  RH  074%=      5-min Rain = 0
KVP1 190212Z 31012KT 16/11 A2972 RMK A01 T01630114  RH  073%=      5-min Rain = 0
KVP1 190213Z 32013KT 16/11 A2972 RMK A01 T01640111  RH  071%=      5-min Rain = 0
KVP1 190214Z 32014KT 17/11 A2972 RMK A01 T01660111  RH  070%=      5-min Rain = 0
KVP1 190215Z 32012KT 17/11 A2971 RMK A01 T01670111  RH  069%=      5-min Rain = 0
KVP1 190216Z 31013KT 17/11 A2971 RMK A01 T01670111  RH  069%=      5-min Rain = 0
KVP1 190217Z 31013KT 17/11 A2971 RMK A01 T01670110  RH  069%=      5-min Rain = 0
KVP1 190218Z 31012KT 17/11 A2971 RMK A01 T01670111  RH  070%=      5-min Rain = 0
KVP1 190219Z 31013KT 17/11 A2971 RMK A01 T01660112  RH  070%=      5-min Rain = 0
KVP1 190220Z 31012KT 17/11 A2971 RMK A01 T01660112  RH  071%=      5-min Rain = 0
KVP1 190221Z 31011KT 17/11 A2971 RMK A01 T01650112  RH  071%=      5-min Rain = 0
KVP1 190222Z 31011KT 17/11 A2971 RMK A01 T01650112  RH  071%=      5-min Rain = 0
KVP1 190223Z 32011KT 17/11 A2971 RMK A01 T01650110  RH  070%=      5-min Rain = 0
KVP1 190224Z 32011KT 17/11 A2971 RMK A01 T01670108  RH  068%=      5-min Rain = 0
KVP1 190225Z 32012KT 17/11 A2971 RMK A01 T01690106  RH  066%=      5-min Rain = 0
KVP1 190226Z 32012KT 17/11 A2971 RMK A01 T01710105  RH  065%=      5-min Rain = 0
KVP1 190227Z 32013KT 17/10 A2971 RMK A01 T01720104  RH  064%=      5-min Rain = 0
KVP1 190228Z 32012KT 17/11 A2971 RMK A01 T01730107  RH  065%=      5-min Rain = 0
KVP1 190229Z 32013KT 17/11 A2971 RMK A01 T01720105  RH  065%=      5-min Rain = 0
KVP1 190230Z 32013KT 17/10 A297 RMK A01 T01720103  RH  064%=      5-min Rain = 0
KVP1 190231Z 32013KT 17/10 A2971 RMK A01 T01730099  RH  062%=      5-min Rain = 0
KVP1 190232Z 33013KT 18/10 A2971 RMK A01 T01750101  RH  062%=      5-min Rain = 0
KVP1 190233Z 33011KT 18/10 A297 RMK A01 T01750101  RH  062%=      5-min Rain = 0
KVP1 190234Z 34010KT 18/10 A297 RMK A01 T01760096  RH  059%=      5-min Rain = 0
KVP1 190235Z 34009KT 18/09 A297 RMK A01 T01780094  RH  058%=      5-min Rain = 0
KVP1 190236Z 33009KT 18/09 A297 RMK A01 T01790093  RH  057%=      5-min Rain = 0
KVP1 190237Z 33007KT 18/09 A297 RMK A01 T01800094  RH  057%=      5-min Rain = 0
KVP1 190238Z 32009KT 18/10 A297 RMK A01 T01800095  RH  058%=      5-min Rain = 0
KVP1 190239Z 33008KT 18/09 A297 RMK A01 T01790089  RH  056%=      5-min Rain = 0
KVP1 190240Z 32008KT 18/09 A297 RMK A01 T01810090  RH  055%=      5-min Rain = 0
KVP1 190241Z 32009KT 18/09 A297 RMK A01 T01820089  RH  055%=      5-min Rain = 0
KVP1 190242Z 31009KT 18/09 A297 RMK A01 T01820088  RH  054%=      5-min Rain = 0
KVP1 190243Z 31007KT 18/09 A297 RMK A01 T01830089  RH  054%=      5-min Rain = 0
KVP1 190244Z 31005KT 18/10 A297 RMK A01 T01820098  RH  058%=      5-min Rain = 0
KVP1 190245Z 30006KT 18/10 A297 RMK A01 T01780095  RH  058%=      5-min Rain = 0
KVP1 190246Z 30006KT 18/09 A297 RMK A01 T01770092  RH  057%=      5-min Rain = 0
KVP1 190247Z 31007KT 18/09 A297 RMK A01 T01770092  RH  058%=      5-min Rain = 0
KVP1 190248Z 32007KT 18/09 A297 RMK A01 T01770091  RH  057%=      5-min Rain = 0
KVP1 190249Z 32007KT 18/10 A297 RMK A01 T01780095  RH  058%=      5-min Rain = 0
KVP1 190250Z 32007KT 18/10 A297 RMK A01 T01760098  RH  060%=      5-min Rain = 0
KVP1 190251Z 32006KT 17/10 A297 RMK A01 T01740098  RH  061%=      5-min Rain = 0
KVP1 190252Z 32006KT 17/10 A297 RMK A01 T01740096  RH  060%=      5-min Rain = 0
KVP1 190253Z 32006KT 17/10 A297 RMK A01 T01740097  RH  061%=      5-min Rain = 0
KVP1 190254Z 31005KT 17/10 A297 RMK A01 T01730097  RH  061%=      5-min Rain = 0
KVP1 190255Z 31005KT 17/10 A297 RMK A01 T01730097  RH  061%=      5-min Rain = 0
KVP1 190256Z 31005KT 17/10 A297 RMK A01 T01730098  RH  061%=      5-min Rain = 0
KVP1 190257Z 31006KT 17/10 A297 RMK A01 T01720096  RH  061%=      5-min Rain = 0
KVP1 190258Z 30007KT 17/10 A297 RMK A01 T01720096  RH  061%=      5-min Rain = 0
KVP1 190259Z 30007KT 17/10 A297 RMK A01 T01720097  RH  061%=      5-min Rain = 0
KVP1 190300Z 29006KT 17/10 A297 RMK A01 T01720097  RH  061%=      5-min Rain = 0
KVP1 190301Z 28006KT 17/10 A297 RMK A01 T01710099  RH  063%=      5-min Rain = 0
KVP1 190302Z 28005KT 17/10 A297 RMK A01 T01680102  RH  065%=      5-min Rain = 0
KVP1 190303Z 28006KT 17/10 A297 RMK A01 T01650104  RH  067%=      5-min Rain = 0
KVP1 190304Z 28007KT 16/10 A297 RMK A01 T01630104  RH  068%=      5-min Rain = 0
KVP1 190305Z 28007KT 16/10 A297 RMK A01 T01610103  RH  069%=      5-min Rain = 0
KVP1 190306Z 28007KT 16/10 A297 RMK A01 T01600103  RH  069%=      5-min Rain = 0
KVP1 190307Z 28007KT 16/10 A297 RMK A01 T01590104  RH  070%=      5-min Rain = 0
KVP1 190308Z 28007KT 16/10 A297 RMK A01 T01580104  RH  070%=      5-min Rain = 0
KVP1 190309Z 27006KT 16/10 A297 RMK A01 T01570104  RH  071%=      5-min Rain = 0
KVP1 190310Z 27007KT 16/10 A297 RMK A01 T01560103  RH  071%=      5-min Rain = 0
KVP1 190311Z 27007KT 16/10 A297 RMK A01 T01560101  RH  070%=      5-min Rain = 0
KVP1 190312Z 27006KT 16/10 A2971 RMK A01 T01560099  RH  069%=      5-min Rain = 0
KVP1 190313Z 27006KT 16/10 A2971 RMK A01 T01560099  RH  069%=      5-min Rain = 0
KVP1 190314Z 27007KT 16/10 A2971 RMK A01 T01560099  RH  069%=      5-min Rain = 0
KVP1 190315Z 26007KT 16/10 A2971 RMK A01 T01560099  RH  069%=      5-min Rain = 0
KVP1 190316Z 26008KT 16/10 A2971 RMK A01 T01560098  RH  069%=      5-min Rain = 0
KVP1 190317Z 26008KT 16/10 A2971 RMK A01 T01560098  RH  069%=      5-min Rain = 0
KVP1 190318Z 26008KT 16/10 A2971 RMK A01 T01560097  RH  068%=      5-min Rain = 0
KVP1 190319Z 26008KT 16/10 A2971 RMK A01 T01560095  RH  067%=      5-min Rain = 0
KVP1 190320Z 26008KT 16/10 A2971 RMK A01 T01570095  RH  067%=      5-min Rain = 0
KVP1 190321Z 26008KT 16/10 A2971 RMK A01 T01570096  RH  067%=      5-min Rain = 0
KVP1 190322Z 26008KT 16/10 A2971 RMK A01 T01570097  RH  068%=      5-min Rain = 0
KVP1 190323Z 26008KT 16/10 A2971 RMK A01 T01560096  RH  068%=      5-min Rain = 0
KVP1 190324Z 26008KT 16/10 A2971 RMK A01 T01550095  RH  068%=      5-min Rain = 0
KVP1 190325Z 26008KT 16/10 A2971 RMK A01 T01550095  RH  067%=      5-min Rain = 0
KVP1 190326Z 26008KT 16/09 A2971 RMK A01 T01550093  RH  066%=      5-min Rain = 0
KVP1 190327Z 26008KT 16/09 A2971 RMK A01 T01560092  RH  066%=      5-min Rain = 0
KVP1 190328Z 26008KT 16/09 A2971 RMK A01 T01560091  RH  065%=      5-min Rain = 0
KVP1 190329Z 25008KT 16/09 A2971 RMK A01 T01560091  RH  065%=      5-min Rain = 0
KVP1 190330Z 25008KT 16/09 A2971 RMK A01 T01550092  RH  066%=      5-min Rain = 0
KVP1 190331Z 25008KT 15/09 A2971 RMK A01 T01540094  RH  067%=      5-min Rain = 0
KVP1 190332Z 26008KT 15/09 A2971 RMK A01 T01520094  RH  068%=      5-min Rain = 0
KVP1 190333Z 25008KT 15/10 A2971 RMK A01 T01510096  RH  070%=      5-min Rain = 0
KVP1 190334Z 25008KT 15/10 A2971 RMK A01 T01500097  RH  071%=      5-min Rain = 0
KVP1 190335Z 25008KT 15/10 A2971 RMK A01 T01490098  RH  072%=      5-min Rain = 0
KVP1 190336Z 25008KT 15/10 A2971 RMK A01 T01480099  RH  072%=      5-min Rain = 0
KVP1 190337Z 25008KT 15/10 A2971 RMK A01 T01470099  RH  073%=      5-min Rain = 0
KVP1 190338Z 25008KT 15/10 A2971 RMK A01 T01450100  RH  074%=      5-min Rain = 0
KVP1 190339Z 25008KT 14/10 A2971 RMK A01 T01440100  RH  075%=      5-min Rain = 0
KVP1 190340Z 25009KT 14/10 A2971 RMK A01 T01420100  RH  076%=      5-min Rain = 0
KVP1 190341Z 25009KT 14/10 A2971 RMK A01 T01420099  RH  076%=      5-min Rain = 0
KVP1 190342Z 25009KT 14/10 A2971 RMK A01 T01410099  RH  076%=      5-min Rain = 0
KVP1 190343Z 25009KT 14/10 A2971 RMK A01 T01410097  RH  075%=      5-min Rain = 0
KVP1 190344Z 25009KT 14/10 A2971 RMK A01 T01410095  RH  074%=      5-min Rain = 0
KVP1 190345Z 24009KT 14/10 A2971 RMK A01 T01410096  RH  074%=      5-min Rain = 0
KVP1 190346Z 24010KT 14/10 A2971 RMK A01 T01410096  RH  074%=      5-min Rain = 0
KVP1 190347Z 24010KT 14/10 A2971 RMK A01 T01420096  RH  074%=      5-min Rain = 0
KVP1 190348Z 24010KT 14/10 A2971 RMK A01 T01420095  RH  073%=      5-min Rain = 0
KVP1 190349Z 24010KT 14/09 A2971 RMK A01 T01420094  RH  073%=      5-min Rain = 0
KVP1 190350Z 24010KT 14/10 A2971 RMK A01 T01420095  RH  073%=      5-min Rain = 0
KVP1 190351Z 23010KT 14/10 A2971 RMK A01 T01420095  RH  073%=      5-min Rain = 0
KVP1 190352Z 23010KT 14/09 A2971 RMK A01 T01410093  RH  072%=      5-min Rain = 0
KVP1 190353Z 23010KT 14/09 A2971 RMK A01 T01420092  RH  071%=      5-min Rain = 0
KVP1 190354Z 24010KT 14/09 A2972 RMK A01 T01430091  RH  071%=      5-min Rain = 0
KVP1 190355Z 23010KT 14/09 A2972 RMK A01 T01440090  RH  070%=      5-min Rain = 0
KVP1 190356Z 23009KT 14/09 A2972 RMK A01 T01440091  RH  070%=      5-min Rain = 0
KVP1 190357Z 23009KT 14/09 A2972 RMK A01 T01440091  RH  070%=      5-min Rain = 0
KVP1 190358Z 23009KT 14/09 A2972 RMK A01 T01440092  RH  071%=      5-min Rain = 0
KVP1 190359Z 23009KT 14/09 A2972 RMK A01 T01430092  RH  072%=      5-min Rain = 0
KVP1 190400Z 23009KT 14/09 A2972 RMK A01 T01420092  RH  072%=      5-min Rain = 0
KVP1 190401Z 24009KT 14/09 A2972 RMK A01 T01400092  RH  073%=      5-min Rain = 0
KVP1 190402Z 24010KT 14/09 A2972 RMK A01 T01390092  RH  073%=      5-min Rain = 0
KVP1 190403Z 24010KT 14/09 A2972 RMK A01 T01370092  RH  075%=      5-min Rain = 0
KVP1 190404Z 24010KT 14/09 A2972 RMK A01 T01360093  RH  075%=      5-min Rain = 0
KVP1 190405Z 24010KT 14/09 A2972 RMK A01 T01350092  RH  075%=      5-min Rain = 0
KVP1 190406Z 24010KT 14/09 A2972 RMK A01 T01360091  RH  074%=      5-min Rain = 0
KVP1 190407Z 24009KT 14/09 A2972 RMK A01 T01380091  RH  074%=      5-min Rain = 0
KVP1 190408Z 25009KT 14/09 A2972 RMK A01 T01380091  RH  073%=      5-min Rain = 0
KVP1 190409Z 24008KT 14/09 A2972 RMK A01 T01390092  RH  073%=      5-min Rain = 0
KVP1 190410Z 24008KT 14/09 A2972 RMK A01 T01390092  RH  073%=      5-min Rain = 0
KVP1 190411Z 24009KT 14/09 A2972 RMK A01 T01400093  RH  073%=      5-min Rain = 0
KVP1 190412Z 24009KT 14/09 A2972 RMK A01 T01400093  RH  074%=      5-min Rain = 0
KVP1 190413Z 24009KT 14/09 A2972 RMK A01 T01400094  RH  074%=      5-min Rain = 0
KVP1 190414Z 24009KT 14/10 A2972 RMK A01 T01390095  RH  074%=      5-min Rain = 0
KVP1 190415Z 24009KT 14/10 A2972 RMK A01 T01400096  RH  075%=      5-min Rain = 0
KVP1 190416Z 24009KT 14/10 A2972 RMK A01 T01390096  RH  075%=      5-min Rain = 0
KVP1 190417Z 24009KT 14/10 A2972 RMK A01 T01390097  RH  076%=      5-min Rain = 0
KVP1 190418Z 24010KT 14/10 A2973 RMK A01 T01390098  RH  076%=      5-min Rain = 0
KVP1 190419Z 24009KT 14/10 A2973 RMK A01 T01390099  RH  077%=      5-min Rain = 0
KVP1 190420Z 24009KT 14/10 A2973 RMK A01 T01390099  RH  077%=      5-min Rain = 0
KVP1 190421Z 24009KT 14/10 A2973 RMK A01 T01390100  RH  077%=      5-min Rain = 0
KVP1 190422Z 24009KT 14/10 A2973 RMK A01 T01390100  RH  077%=      5-min Rain = 0
KVP1 190423Z 24009KT 14/10 A2973 RMK A01 T01390100  RH  077%=      5-min Rain = 0
KVP1 190424Z 24009KT 14/10 A2973 RMK A01 T01390100  RH  077%=      5-min Rain = 0
KVP1 190425Z 24009KT 14/10 A2973 RMK A01 T01390100  RH  077%=      5-min Rain = 0
KVP1 190426Z 24009KT 14/10 A2973 RMK A01 T01400100  RH  077%=      5-min Rain = 0
KVP1 190427Z 24009KT 14/10 A2973 RMK A01 T01400100  RH  077%=      5-min Rain = 0
KVP1 190428Z 24010KT 14/10 A2973 RMK A01 T01390100  RH  077%=      5-min Rain = 0
KVP1 190429Z 24010KT 14/10 A2973 RMK A01 T01390099  RH  077%=      5-min Rain = 0
KVP1 190430Z 24010KT 14/10 A2973 RMK A01 T01390099  RH  077%=      5-min Rain = 0
KVP1 190431Z 24010KT 14/10 A2973 RMK A01 T01390099  RH  077%=      5-min Rain = 0
KVP1 190432Z 24010KT 14/10 A2973 RMK A01 T01390099  RH  077%=      5-min Rain = 0
KVP1 190433Z 24009KT 14/10 A2973 RMK A01 T01380098  RH  077%=      5-min Rain = 0
KVP1 190434Z 24009KT 14/10 A2973 RMK A01 T01380098  RH  077%=      5-min Rain = 0
KVP1 190435Z 24009KT 14/10 A2973 RMK A01 T01370098  RH  077%=      5-min Rain = 0
KVP1 190436Z 24009KT 14/10 A2973 RMK A01 T01370098  RH  077%=      5-min Rain = 0
KVP1 190437Z 24009KT 14/10 A2973 RMK A01 T01360098  RH  078%=      5-min Rain = 0
KVP1 190438Z 23009KT 14/10 A2973 RMK A01 T01350097  RH  078%=      5-min Rain = 0
KVP1 190439Z 23009KT 13/10 A2973 RMK A01 T01340097  RH  078%=      5-min Rain = 0
KVP1 190440Z 23009KT 13/10 A2973 RMK A01 T01330097  RH  079%=      5-min Rain = 0
KVP1 190441Z 23009KT 13/10 A2973 RMK A01 T01320097  RH  079%=      5-min Rain = 0
KVP1 190442Z 23009KT 13/10 A2973 RMK A01 T01320096  RH  079%=      5-min Rain = 0
KVP1 190443Z 23009KT 13/10 A2973 RMK A01 T01310096  RH  079%=      5-min Rain = 0
KVP1 190444Z 23009KT 13/10 A2973 RMK A01 T01310096  RH  079%=      5-min Rain = 0
KVP1 190445Z 24009KT 13/10 A2973 RMK A01 T01300095  RH  079%=      5-min Rain = 0
KVP1 190446Z 24009KT 13/10 A2973 RMK A01 T01290095  RH  079%=      5-min Rain = 0
KVP1 190447Z 24009KT 13/09 A2973 RMK A01 T01290094  RH  079%=      5-min Rain = 0
KVP1 190448Z 24010KT 13/09 A2973 RMK A01 T01290094  RH  079%=      5-min Rain = 0
KVP1 190449Z 24010KT 13/09 A2973 RMK A01 T01290093  RH  079%=      5-min Rain = 0
KVP1 190450Z 24010KT 13/09 A2973 RMK A01 T01300093  RH  078%=      5-min Rain = 0
KVP1 190451Z 24010KT 13/09 A2973 RMK A01 T01300093  RH  078%=      5-min Rain = 0
KVP1 190452Z 24010KT 13/09 A2973 RMK A01 T01300093  RH  078%=      5-min Rain = 0
KVP1 190453Z 24011KT 13/09 A2973 RMK A01 T01300092  RH  078%=      5-min Rain = 0
KVP1 190454Z 25010KT 13/09 A2973 RMK A01 T01300092  RH  078%=      5-min Rain = 0
KVP1 190455Z 25010KT 13/09 A2973 RMK A01 T01300091  RH  077%=      5-min Rain = 0
KVP1 190456Z 25011KT 13/09 A2973 RMK A01 T01300090  RH  077%=      5-min Rain = 0
KVP1 190457Z 25010KT 13/09 A2973 RMK A01 T01300089  RH  076%=      5-min Rain = 0
KVP1 190458Z 25010KT 13/09 A2973 RMK A01 T01300089  RH  076%=      5-min Rain = 0
KVP1 190459Z 25010KT 13/09 A2973 RMK A01 T01310089  RH  076%=      5-min Rain = 0

Page generated in 0.1219 seconds.